Water and Atmospheric Resources Monitoring Program - , Illinois State Water Survey

Water and Atmospheric Resources Monitoring Program (WARM)

Weather Soil Groundwater Sediment Streamflow Reservoirs

#361 Kaskaskia (USGS #5592500)


Instantaneous Suspended Sediment Measurements

Date Time    Gage Ht. Temp Cs Qw Qs Final F
i
n
a
l
     (feet) (C) (mg/l) (cfs) (t/d)  
10/14/1980 08:20    2.08 10 66.00 47.7 8.5 True x
10/28/1980 08:00    4.12 128.00 400.7 138.5 True x
11/11/1980 08:10    5.32 63.00 682.5 116.1 True x
11/25/1980 08:50    2.64 37.00 123.8 12.4 True x
12/10/1980 10:00    2.96 50.00 175.5 23.7 True x
1/29/1981 16:20    2.36  1.00 83.2 0.2 True x
3/5/1981 14:50    6.90 33.00 1108 98.7 True x
3/12/1981 08:15    4.86 65.00 569.3 99.9 True x
3/19/1981 09:50    4.63 44.00 515.1 61.2 True x
3/26/1981 11:35    3.07 10 43.00 194.5 22.6 True x
4/1/1981 18:10    2.60 17 57.00 117.7 18.1 True x
4/2/1981 16:35    2.56 20 31.00 111.8 9.4 True x
4/3/1981 10:00    2.52 20 50.00 105.9 14.3 True x
4/4/1981 16:00    2.55 18 44.00 110.3 13.1 True x
4/5/1981 14:00    2.75 14 58.00 141 22.1 True x
4/6/1981 14:30    2.70 15 80.00 133 28.7 True x
4/7/1981 16:30    2.60 18 52.00 117.7 16.5 True x
4/8/1981 16:00    2.50 18 62.00 102.9 17.2 True x
4/9/1981 16:30    2.46 20 81.00 97.2 21.3 True x
4/10/1981 16:00    2.53 24 50.00 107.3 14.5 True x
4/11/1981 15:30    2.59 20 57.00 116.2 17.9 True x
4/12/1981 13:30    3.00 21 73.00 182.3 35.9 True x
4/13/1981 14:00    3.50 23 118.00 273.6 87.2 True x
4/14/1981 14:30    3.59 19 109.00 291.2 85.7 True x
4/15/1981 16:30    4.67 19 111.00 524.4 157.2 True x
4/16/1981 16:00    4.70 17 226.00 531.4 324.3 True x
4/17/1981 16:45    6.03 21 392.00 868 918.7 True x
4/18/1981 14:00    6.36 21 402.00 957.2 1,039.0 True x
4/19/1981 14:00    6.53 16 343.00 1004 930.0 True x
4/20/1981 16:30    6.63 15 288.00 1032 802.8 True x
4/21/1981 16:15    6.70 17 271.00 1052 769.7 True x
4/22/1981 16:15    6.74 16 230.00 1063 660.2 True x
4/23/1981 16:30    12.45 17 2,010.00 3121 16,920.0 True x
4/24/1981 16:30    10.19 16 1,030.00 2174 6,046.0 True x
4/25/1981 08:25    8.25 16 565.00 1512 2,306.0 True x
4/26/1981 15:00    7.66 21 380.00 1331 1,366.0 True x
4/27/1981 16:30    7.41 23 305.00 1256 1,034.0 True x
4/28/1981 16:30    7.26 24 310.00 1212 1,015.0 True x
4/29/1981 16:00    7.43 21 717.00 1262 2,443.0 True x
4/30/1981 16:00    6.94 19 301.00 1120 909.9 True x
5/1/1981 16:00    6.73 19 246.00 1060 704.3 True x
5/2/1981 20:27    6.61 18 230.00 1027 637.6 True x
5/3/1981 15:30    6.48 20 239.00 990.2 639.0 True x
5/4/1981 16:00    6.44 20 168.00 979.1 444.1 True x
5/5/1981 16:00    5.87 18 154.00 825.1 343.1 True x
5/6/1981 16:00    5.79 18 147.00 803.9 319.1 True x
5/7/1981 16:00    5.54 19 130.00 738.6 259.2 True x
5/8/1981 16:00    4.93 18 90.00 586.2 142.4 True x
5/10/1981 09:00    4.30 15 94.00 440.1 111.7 True x
5/11/1981 16:00    13.44 11 1,562.00 3638 15,330.0 True x
5/12/1981 15:30    9.39 14 791.00 1885 4,025.0 True x
5/13/1981 15:30    7.14 11 411.00 1178 1,307.0 True x
5/13/1981 16:00    7.14 13 417.00 1178 1,326.0 True x
5/14/1981 16:00    7.09 15 278.00 1163 873.0 True x
5/15/1981 16:30    8.78 18 558.00 1679 2,529.0 True x
5/16/1981 16:30    7.53 20 393.00 1292 1,371.0 True x
5/17/1981 16:30    7.34 16 322.00 1236 1,074.0 True x
5/18/1981 16:00    11.56 13 1,350.00 2722 9,914.0 True x
5/19/1981 16:00    17.26 12 1,205.00 6065 19,730.0 True x
5/20/1981 16:00    17.35 15 797.00 6777 14,580.0 True x
5/21/1981 16:30    11.35 18 724.00 3027 5,916.0 True x
5/22/1981 16:00    8.19 21 381.00 1690 1,738.0 True x
5/23/1981 15:30    8.34 21 321.00 1742 1,510.0 True x
5/24/1981 11:30    8.37 19 447.00 1753 2,116.0 True x
5/25/1981 16:30    9.87 20 392.00 2353 2,490.0 True x
5/26/1981 16:00    9.78 18 400.00 2316 2,501.0 True x
5/27/1981 16:30    9.48 20 391.00 2192 2,314.0 True x
5/28/1981 16:00    9.30 21 299.00 2118 1,710.0 True x
5/29/1981 16:30    9.18 22 281.00 2069 1,570.0 True x
5/30/1981 16:00    9.11 20 299.00 2041 1,648.0 True x
5/31/1981 10:00    9.19 18 299.00 2073 1,674.0 True x
6/1/1981 16:30    9.09 20 263.00 2033 1,444.0 True x
6/2/1981 16:30    9.14 20 459.00 2053 2,544.0 True x
6/3/1981 16:00    9.50 20 258.00 2200 1,533.0 True x
6/4/1981 16:00    7.74 23 248.00 1532 1,026.0 True x
6/5/1981 08:00    8.67 20 342.00 1866 1,723.0 True x
6/6/1981 08:30    9.04 21 270.00 2013 1,467.0 True x
6/7/1981 12:00    9.10 21 268.00 2037 1,474.0 True x
6/8/1981 12:00    8.93 23 252.00 1969 1,340.0 True x
6/9/1981 16:00    8.82 24 254.00 1925 1,320.0 True x
6/10/1981 12:00    10.28 20 611.00 2526 4,166.0 True x
6/10/1981 16:00    11.30 19 2,466.00 3002 19,960.0 True x
6/11/1981 14:00    12.80 22 2,639.00 3748 26,670.0 True x
6/12/1981 12:00    7.58 23 1,153.00 1477 4,599.0 True x
6/13/1981 08:00    6.39 23 772.00 1090 2,272.0 True x
6/13/1981 16:00    7.84 22 749.00 1567 3,168.0 True x
6/14/1981 08:30    7.60 23 709.00 1484 2,841.0 True x
6/14/1981 16:15    7.73 25 470.00 1528 1,940.0 True x
6/15/1981 08:00    8.03 23 692.00 1633 3,051.0 True x
6/16/1981 09:00    8.85 21 400.00 1937 2,092.0 True x
6/16/1981 15:30    8.98 20 395.00 1989 2,121.0 True x
6/17/1981 08:30    8.43 18 251.00 1775 1,203.0 True x
6/17/1981 14:00    8.33 21 247.00 1739 1,160.0 True x
6/18/1981 08:00    8.75 18 308.00 1898 1,578.0 True x
6/18/1981 15:30    8.84 23 270.00 1933 1,409.0 True x
6/19/1981 08:30    8.86 20 301.00 1941 1,577.0 True x
6/19/1981 14:00    8.94 23 254.00 1973 1,353.0 True x
6/20/1981 08:00    8.82 21 232.00 1925 1,206.0 True x
6/20/1981 14:00    8.83 23 297.00 1929 1,547.0 True x
6/21/1981 09:00    8.87 21 243.00 1945 1,276.0 True x
6/21/1981 15:30    8.87 21 253.00 1945 1,329.0 True x
6/22/1981 08:00    8.87 21 231.00 1945 1,213.0 True x
6/22/1981 14:30    8.90 23 243.00 1957 1,284.0 True x
6/23/1981 09:00    8.99 21 259.00 1993 1,394.0 True x
6/23/1981 14:30    8.93 24 251.00 1969 1,334.0 True x
6/24/1981 07:00    8.81 21 243.00 1921 1,260.0 True x
6/24/1981 14:30    8.87 23 283.00 1945 1,486.0 True x
6/25/1981 08:30    8.77 22 157.00 1905 807.7 True x
6/25/1981 20:30    8.70 22 172.00 1878 872.1 True x
6/26/1981 07:30    8.72 22 87.00 1886 443.0 True x
6/26/1981 20:30    8.71 22 109.00 1882 553.8 True x
6/27/1981 09:00    8.60 23 128.00 1839 635.6 True x
6/27/1981 21:30    8.59 23 150.00 1835 743.2 True x
6/28/1981 19:15    8.58 24 237.00 1831 1,172.0 True x
6/29/1981 10:00    8.56 26 204.00 1823 1,004.0 True x
6/29/1981 18:15    8.56 28 186.00 1823 915.7 True x
6/30/1981 10:00    8.56 25 260.00 1823 1,280.0 True x
6/30/1981 20:15    8.55 25 170.00 1820 835.2 True x
7/1/1981 08:00    8.57 24 241.00 1827 1,189.0 True x
7/1/1981 16:00    8.59 25 246.00 1835 1,219.0 True x
7/2/1981 09:00    8.70 23 229.00 1878 1,161.0 True x
7/3/1981 08:00    8.72 23 204.00 1886 1,039.0 True x
7/3/1981 15:00    8.67 26 241.00 1866 1,214.0 True x
7/4/1981 07:30    8.57 24 260.00 1827 1,283.0 True x
7/4/1981 15:00    8.56 23 242.00 1823 1,191.0 True x
7/5/1981 08:30    8.67 22 252.00 1866 1,270.0 True x
7/5/1981 15:00    8.68 23 268.00 1870 1,353.0 True x
7/7/1981 10:00    9.21 22 468.00 2081 2,630.0 True x
7/7/1981 15:00    9.19 23 542.00 2073 3,034.0 True x
7/8/1981 08:00    8.89 24 332.00 1953 1,751.0 True x
7/8/1981 14:00    8.85 26 353.00 1937 1,846.0 True x
7/9/1981 08:00    8.86 25 332.00 1941 1,740.0 True x
7/10/1981 07:00    8.58 24 245.00 1831 1,211.0 True x
7/11/1981 08:00    8.56 23 298.00 1823 1,467.0 True x
7/11/1981 14:00    8.53 28 339.00 1812 1,658.0 True x
7/12/1981 08:30    8.54 25 293.00 1816 1,436.0 True x
7/12/1981 16:00    8.52 28 300.00 1808 1,464.0 True x
7/13/1981 09:00    8.53 25 315.00 1812 1,541.0 True x
7/13/1981 14:00    8.53 26 250.00 1812 1,223.0 True x
7/14/1981 08:00    8.54 27 248.00 1816 1,216.0 True x
7/14/1981 14:20    8.48 29 319.00 1793 1,544.0 True x
7/15/1981 08:00    8.51 26 264.00 1804 1,286.0 True x
7/15/1981 14:00    8.49 28 301.00 1796 1,460.0 True x
7/16/1981 08:00    8.48 25 318.00 1793 1,539.0 True x
7/16/1981 14:00    8.47 27 284.00 1789 1,372.0 True x
7/17/1981 08:30    8.44 25 319.00 1778 1,532.0 True x
7/17/1981 14:00    8.43 28 263.00 1775 1,260.0 True x
7/18/1981 08:30    8.42 25 292.00 1771 1,396.0 True x
7/18/1981 14:00    8.42 28 332.00 1771 1,588.0 True x
7/19/1981 08:45    8.45 25 348.00 1782 1,674.0 True x
7/19/1981 14:00    8.46 27 258.00 1786 1,244.0 True x
7/20/1981 09:00    15.82 20 1,768.00 5620 26,810.0 True x
7/20/1981 15:00    16.60 27 913.00 6178 15,230.0 True x
7/21/1981 10:00    15.34 24 367.00 5285 5,237.0 True x
7/21/1981 18:00    14.62 26 266.00 4782 3,434.0 True x
7/22/1981 08:00    11.35 26 324.00 3027 2,648.0 True x
7/22/1981 14:00    10.15 27 336.00 2471 2,241.0 True x
7/22/1981 15:30    10.00 25 322.00 2407 2,093.0 True x
7/23/1981 09:30    7.87 25 288.00 1577 1,226.0 True x
7/23/1981 14:00    7.62 24 290.00 1491 1,167.0 True x
7/24/1981 09:00    7.12 22 246.00 1324 879.1 True x
7/24/1981 14:30    7.04 25 252.00 1297 882.6 True x
7/25/1981 09:00    6.72 23 228.00 1194 735.3 True x
7/25/1981 14:00    6.68 25 217.00 1182 692.3 True x
7/26/1981 09:00    6.46 23 281.00 1112 843.4 True x
7/26/1981 14:30    6.94 26 244.00 1265 833.3 True x
7/27/1981 08:30    9.62 23 1,651.00 2249 10,020.0 True x
7/27/1981 14:30    9.68 24 1,599.00 2274 9,811.0 True x
7/28/1981 10:00    9.70 24 2,399.00 2282 14,760.0 True x
7/28/1981 15:00    11.06 24 1,574.00 2885 12,250.0 True x
7/29/1981 08:00    14.14 21 1,676.00 4480 20,260.0 True x
7/29/1981 12:00    11.42 24 1,076.00 3061 8,892.0 True x
8/6/1981 10:55    9.67 24 718.00 2270 4,400.0 True x
8/11/1981 11:30    7.98 24 274.00 1615 1,195.0 True x
8/20/1981 15:05    6.90 24 344.00 1252 1,163.0 True x
8/25/1981 11:20    7.79 26 213.00 1549 891.1 True x
9/2/1981 14:35    9.39 22 446.00 2155 2,595.0 True x
9/10/1981 11:00    8.05 21 194.00 1640 859.0 True x
9/17/1981 09:35    8.23 17 281.00 1704 1,292.0 True x
9/22/1981 11:35    8.63 19 218.00 1851 1,089.0 True x
10/13/1981 15:40    6.45 17 84.00 1108 251.3 True x
10/22/1981 11:50    5.94 12 67.00 951.9 172.2 True x
10/28/1981 15:00    6.04 12 55.00 982 145.8 True x
11/3/1981 12:15    6.06 15 49.00 988 130.7 True x
11/10/1981 13:00    5.92 10 53.00 945.8 135.4 True x
11/17/1981 12:30    5.83 10 75.00 918.8 186.1 True x
12/4/1981 10:20    8.77 146.00 1905 751.0 True x
12/9/1981 12:45    7.01 92.00 1287 344.1 True x
1/8/1982 10:45    10.64  261.00 2685 1,892.0 True x
2/16/1982 12:30    11.15 278.00 2928 2,198.0 True x
2/25/1982 12:40    21.57 155.00 11580 4,848.0 True x
3/2/1982 12:50    17.02 244.00 6510 4,289.0 True x
3/10/1982 12:05    16.32 231.00 5971 3,725.0 True x
3/16/1982 12:30    18.80 10 210.00 8121 4,605.0 True x
3/25/1982 12:20    17.21 176.00 6663 3,167.0 True x
3/30/1982 12:00    14.50 202.00 4700 2,564.0 True x
4/6/1982 12:35    10.51 196.00 2625 1,389.0 True x
4/13/1982 12:30    9.18 11 127.00 2069 709.4 True x
4/20/1982 12:00    10.54 13 170.00 2638 1,211.0 True x
4/29/1982 12:15    6.21 14 123.00 1036 321.8 True x
5/4/1982 12:10    4.81 19 89.00 632.9 152.1 True x
5/11/1982 12:10    3.83 22 70.00 401.6 75.9 True x
5/18/1982 12:40    3.65 23 129.00 361.7 126.0 True x
5/25/1982 12:30    3.16 22 98.00 257.5 68.1 True x
6/1/1982 12:10    16.40 19 1,509.00 6028 24,580.0 True x
6/8/1982 12:45    11.95 19 830.00 3346 7,493.0 True x
6/22/1982 12:10    9.27 22 171.00 2105 972.0 True x
6/29/1982 12:15    8.49 24 183.00 1796 887.7 True x
7/7/1982 12:10    6.32 24 325.00 1067 936.7 True x
7/13/1982 13:20    8.88 25 1,495.00 1948 7,871.0 True x
7/23/1982 12:10    13.39 24 419.00 4044 4,576.0 True x
7/29/1982 14:15    7.26 27 198.00 1369 639.7 True x
8/3/1982 13:10    7.65 28 158.00 1501 640.4 True x
8/10/1982 12:20    6.74 21 150.00 1200 486.0 True x
8/17/1982 12:15    5.31 25 129.00 766.9 267.1 True x
8/24/1982 13:10    3.86 23 110.00 408.3 121.3 True x
8/31/1982 12:10    3.91 23 91.00 419.6 103.1 True x
9/21/1982 12:45    3.69 16 64.00 370.4 63.0 True x
10/6/1982 13:35    2.60 24 85.00 117.7 27.0 True x
10/19/1982 12:07    5.41 13 47.00 705.2 89.5 True x
10/27/1982 12:07    5.42 12 134.00 707.8 256.1 True x
11/3/1982 11:00    4.06 12 91.00 387.8 95.3 True x
11/9/1982 13:10    5.31 13 84.00 679.9 154.2 True x
11/16/1982 13:15    5.47 24.00 720.6 46.7 True x
11/22/1982 11:30    9.45 10 473.00 1906 2,434.0 True x
11/30/1982 12:00    2.94 292.00 172.2 135.8 True x
12/7/1982 13:00    20.21 183.00 9109 4,501.0 True x
12/14/1982 12:40    10.71 117.00 2381 752.2 True x
1/4/1983 12:45    15.59 156.00 4900 2,064.0 True x
1/19/1983 12:30    12.31 101.00 3051 832.1 True x
2/1/1983 12:30    6.72 71.00 1058 202.8 True x
2/8/1983 13:00    8.91 50.00 1721 232.4 True x
2/16/1983 12:30    8.29 51.00 1524 209.8 True x
4/12/1983 13:00    11.61 11 122.00 2742 903.3 True x
4/25/1983 13:00    8.47 13 172.00 1580 734.0 True x
5/3/1983 12:30    23.48 16 582.00 14890 23,410.0 True x
6/21/1983 13:00    11.68 22 202.00 2770 1,511.0 True x
7/19/1983 13:00    9.09 28 167.00 1781 803.0 True x
8/23/1983 12:30    5.50 25 109.00 728.2 214.3 True x
10/12/1983 12:20    2.39 13 46.00 87 11.0 True x
10/21/1983 10:45    5.49 12 591.00 726 1,158.0 True x
12/14/1983 13:00    22.28 162.00 12550 5,489.0 True x
1/24/1984 13:30    11.14 97.00 2555 669.0 True x
2/2/1984 13:04    8.04 53.00 1446 207.0 True x
2/8/1984 12:30    10.39 88.00 2253 535.0 True x
3/7/1984 12:11    16.02 125.00 5164 1,743.0 True x
3/14/1984 13:30    10.41 50.00 2261 305.0 True x
3/19/1984 12:10    17.54 167.00 6301 2,841.0 True x
3/27/1984 12:00    16.52 153.00 5509 2,276.0 True x
4/2/1984 10:13    12.02 212.00 2910 1,666.0 True x
4/19/1984 09:42    8.59 10 129.00 1618 564.0 True x
4/26/1984 12:55    12.41 16 248.00 3101 2,076.0 True x
4/30/1984 11:50    13.96 13 630.00 3927 6,680.0 True x
5/18/1984 11:41    8.97 20 110.00 1740 517.0 True x
5/30/1984 13:00    7.88 16 135.00 1397 509.0 True x
6/4/1984 11:51    9.35 22 139.00 1870 702.0 True x
6/14/1984 10:45    9.00 25 107.00 1750 506.0 True x
7/24/1984 12:15    7.48 28 169.00 1277 583.0 True x
8/16/1984 13:15    2.97 30 87.00 177 42.0 True x
9/12/1984 13:00    3.25 23 254.00 227 155.0 True x
9/26/1984 13:14    5.55 19 304.00 741 608.0 True x
10/11/1984 13:30    2.62 22 78.00 121 25.0 True x
10/24/1984 12:30    3.75 14 84.00 323 73.0 True x
10/29/1984 13:15    3.34  63.00 243 41.0 True x
12/11/1984 12:00    8.61 216.00 1625 948.0 True x
1/2/1985 13:40    21.89 294.00 11840 9,399.0 True x
2/27/1985 13:00    19.80 167.00 8551 3,856.0 True x
4/9/1985 15:06    17.37  277.00 6157 4,605.0 True x
4/15/1985 13:37    16.40  369.00 5425 5,405.0 True x
4/22/1985 11:00    9.72  591.00 2000 3,191.0 True x
4/29/1985 14:15    7.55  262.00 1298 918.0 True x
5/7/1985 10:00    7.30  226.00 1224 745.0 True x
5/14/1985 09:00    6.28  222.00 935 560.0 True x
5/21/1985 10:00    3.90  130.00 354 124.0 True x
5/27/1985 14:30    3.70  144.00 313 122.0 True x
6/4/1985 13:15    6.14  618.00 897 1,497.0 True x
6/4/1985 14:30    6.15  728.00 900 1,769.0 True x
6/19/1985 09:30    4.75  248.00 543 364.0 True x
6/25/1985 14:00    8.64  956.00 1634 4,218.0 True x
7/2/1985 09:00    6.05  397.00 873 936.0 True x
7/9/1985 13:00    5.57  321.00 746 647.0 True x
7/15/1985 14:00    5.75  317.00 793 679.0 True x
7/21/1985 14:00    5.70  262.00 780 552.0 True x
7/28/1985 10:00    3.61  212.00 295 169.0 True x
8/6/1985 11:00    4.70  437.00 531 626.0 True x
8/12/1985 14:00    3.39  216.00 253 147.0 True x
8/19/1985 13:00    5.23  411.00 660 732.0 True x
8/27/1985 13:05    3.75  167.00 323 146.0 True x
9/3/1985 09:00    2.85  143.00 157 61.0 True x
9/10/1985 14:00    2.35  129.00 82 29.0 True x
9/17/1985 07:00    2.35  112.00 82 25.0 True x
9/19/1985 12:30    2.38  103.00 86 24.0 True x
9/24/1985 07:30    2.33  134.00 79 29.0 True x
10/1/1985 08:00    4.95  59.00 591 94.0 True x
10/8/1985 08:00    2.20  96.00 62 16.0 True x
10/15/1985 15:00    2.95  103.00 174 48.0 True x
10/21/1985 16:00    2.24  49.00 67 9.0 True x
10/28/1985 15:00    2.32  56.00 78 12.0 True x
11/5/1985 09:30    2.60  66.00 118 21.0 True x
11/11/1985 14:50    3.80  279.00 333 251.0 True x
11/18/1985 14:30    5.74  266.00 791 568.0 True x
11/25/1985 13:00    16.80  852.00 5707 13,128.0 True x
12/2/1985 14:30    11.85  248.00 2839 1,901.0 True x
12/16/1985 13:30    15.25  164.00 4697 2,080.0 True x
12/23/1985 13:15    15.65  158.00 4936 2,106.0 True x
12/30/1985 13:20    15.15  214.00 4638 2,680.0 True x
1/6/1986 14:00    14.45  140.00 4215 1,593.0 True x
1/13/1986 14:00    10.25  96.00 2198 570.0 True x
1/21/1986 13:50    10.20  107.00 2178 629.0 True x
2/3/1986 14:15    16.75  837.00 5671 12,816.0 True x
2/10/1986 15:00    9.10  87.00 1784 419.0 True x
2/19/1986 15:00    8.40  62.00 1558 261.0 True x
2/25/1986 14:30    8.35  52.00 1543 217.0 True x
2/26/1986 14:00    8.46  90.00 1577 383.0 True x
3/4/1986 13:30    7.28  38.00 1218 125.0 True x
3/11/1986 15:30    9.40  159.00 1888 810.0 True x
3/18/1986 15:00    7.26  101.00 1212 330.0 True x
3/25/1986 13:00    7.24  49.00 1206 160.0 True x
4/1/1986 15:30    6.10  101.00 887 242.0 True x
4/8/1986 15:00    4.45  97.00 474 124.0 True x
4/16/1986 15:00    3.72  54.00 317 46.0 True x
4/22/1986 14:00    3.25  61.00 227 37.0 True x
4/29/1986 13:00    3.15  91.00 209 51.0 True x
5/6/1986 16:00    2.95  114.00 174 54.0 True x
5/12/1986 15:00    3.00  149.00 182 73.0 True x
5/29/1986 15:00    4.23  576.00 425 661.0 True x
6/4/1986 14:30    2.65  46.00 125 15.0 True x
6/10/1986 15:00    4.70  262.00 531 376.0 True x
6/17/1986 14:30    7.33  307.00 1233 1,022.0 True x
6/24/1986 08:10    5.74  143.00 791 305.0 True x
7/1/1986 09:00    9.55  1,528.00 1940 8,004.0 True x
7/9/1986 15:00    4.75  244.00 543 358.0 True x
7/14/1986 14:30    4.29  196.00 438 232.0 True x
7/15/1986 13:00    4.82  258.00 560 390.0 True x
7/22/1986 15:25    3.05  85.00 191 44.0 True x
7/29/1986 14:50    2.95  224.00 174 105.0 True x
8/5/1986 14:30    3.49  82.00 272 60.0 True x
8/12/1986 15:00    2.95  92.00 174 43.0 True x
8/19/1986 14:00    2.80  125.00 149 50.0 True x
8/27/1986 15:00    2.25  116.00 68 21.0 True x
9/8/1986 15:30    2.03  125.00 42 14.0 True x
9/15/1986 16:00    1.98  108.00 37 11.0 True x
9/23/1986 16:00    2.26  79.00 70 15.0 True x
9/30/1986 11:00    2.16  80.00 57 12.0 True x
10/7/1986 09:00    4.74  193.00 551.7 287.5 True x
10/14/1986 13:00    3.29  30.00 218.3 17.7 True x
10/24/1986 16:00    6.65  172.00 1095 508.5 True x
11/1/1986 16:00    7.85  216.00 1522 887.6 True x
11/8/1986 14:00    5.30  36.00 696.3 67.7 True x
11/15/1986 13:00    4.45  33.00 480.8 42.8 True x
11/22/1986 10:30    4.60  17.00 539.3 24.8 True x
12/2/1986 16:00    14.00  684.00 4396 8,118.5 True x
12/9/1986 15:00    8.92  115.00 1939 602.1 True x
12/16/1986 15:00    8.79  92.00 1882 467.5 True x
12/23/1986 14:00    7.79  129.00 1499 522.1 True x
12/31/1986 10:00    8.75  161.00 1870 812.9 True x
1/7/1987 11:00    8.70  140.00 1886 712.9 True x
1/14/1987 13:00    8.58  621.00 1803 3,023.1 True x
1/21/1987 15:00    8.61  510.00 1815 2,499.3 True x
1/28/1987 14:00    10.00  451.00 2396 2,917.6 True x
2/4/1987 14:50    12.75  917.00 3723 9,217.8 True x
2/11/1987 11:40    9.37  337.00 2121 1,929.9 True x
2/23/1987 15:00    5.29  67.00 693.6 125.5 True x
3/4/1987 15:00    6.40  72.00 1015 197.3 True x
3/11/1987 15:50    5.70  36.00 806.3 78.4 True x
3/18/1987 15:30    5.37  66.00 715.1 127.4 True x
3/24/1987 15:50    4.40  51.00 468.5 64.5 True x
3/31/1987 15:00    3.00  43.00 160 18.6 True x
4/7/1987 15:30    2.99  39.00 158.1 16.6 True x
4/14/1987 16:00    12.06  344.00 3376 3,135.6 True x
4/22/1987 14:00    5.10  118.00 667.1 212.5 True x
4/29/1987 14:50    4.50  43.00 493.3 57.3 True x
5/6/1987 15:00    3.35  282.00 231 175.9 True x
5/13/1987 13:00    3.93  223.00 359.3 216.3 True x
5/19/1987 15:30    3.20  117.00 199.6 63.1 True x
5/26/1987 16:00    3.00  264.00 160 114.0 True x
6/3/1987 06:00    2.34  168.00 53 24.1 True x
6/10/1987 07:00    2.12  73.00 28.8 5.7 True x
6/17/1987 06:00    2.04  80.00 21.7 4.7 True x
6/23/1987 15:00    2.11  97.00 27.9 7.3 True x
6/24/1987 06:30    2.10  240.00 27 17.5 True x
7/1/1987 18:00    2.33  100.00 51.8 14.0 True x
7/8/1987 18:30    4.25  543.00 432.4 633.9 True x
7/15/1987 08:30    7.62  162.00 1434 627.2 True x
7/22/1987 18:30    6.95  153.00 1193 492.8 True x
7/29/1987 18:35    5.78  161.00 829.1 360.4 True x
8/5/1987 19:00    7.20  316.00 1281 1,092.9 True x
8/12/1987 18:15    4.35  138.00 453.9 169.1 True x
8/19/1987 18:30    2.80  73.00 122.9 24.2 True x
8/26/1987 18:30    2.39  67.00 59.6 10.8 True x
9/2/1987 18:45    2.05  51.00 21.7 3.0 True x
9/9/1987 07:00    1.90  66.00 11.5 2.0 True x
9/16/1987 06:45    1.69  164.00 0.0 True x
9/23/1987 06:30    1.56  56.00 0.0 True x
9/30/1987 07:00    1.60  72.00 0.0 True x
10/7/1987 07:00    1.55  31.00 0.0 True x
10/14/1987 06:50    1.40  27.00 0.0 True x
10/28/1987 06:45    1.65  27.00 0.0 True x
11/4/1987 06:30    1.28  45.00 0.0 True x
11/25/1987 07:15    2.04  24.00 21.7 1.4 True x
12/2/1987 08:00    4.10  180.00 418.3 204.3 True x
12/9/1987 07:30    8.30  213.00 1694 977.7 True x
12/23/1987 06:30    17.95  448.00 7298 8,846.4 True x
12/30/1987 07:30    15.85  82.00 5641 1,260.2 True x
1/6/1988 08:00    11.15  103.00 2928 816.0 True x
1/13/1988 07:45    13.95  166.00 4366 1,966.9 True x
1/20/1988 07:00    12.42  76.00 3559 732.7 True x
1/27/1988 14:00    10.30  132.00 2529 903.0 True x
2/10/1988 08:30    17.20  95.00 6655 1,721.7 True x
2/13/1988 14:00    23.10  164.00 14120 6,277.1 True x
2/17/1988 13:35    15.42  77.00 5342 1,113.8 True x
2/24/1988 14:00    18.10  67.00 7433 1,344.6 True x
3/2/1988 07:30    12.30  63.00 3498 595.0 True x
3/9/1988 06:50    10.10  195.00 2440 1,291.0 True x
3/16/1988 14:00    9.55  53.00 2201 315.1 True x
3/23/1988 14:00    7.17  98.00 1270 338.0 True x
3/29/1988 08:00    6.50  96.00 1047 274.0 True x
4/9/1988 11:15    9.25  170.00 2075 956.6 True x
4/14/1988 14:30    6.30  265.00 984 705.1 True x
4/20/1988 07:00    5.65  177.00 792.2 380.5 True x
4/28/1988 06:30    5.25  132.00 683 244.4 True x
5/4/1988 06:30    3.90  134.00 352.7 128.1 True x
5/11/1988 06:30    3.65  168.00 297.1 134.9 True x
5/18/1988 06:45    2.90  124.00 141 47.5 True x
5/25/1988 07:00    2.40  193.00 61 31.9 True x
6/1/1988 06:30    2.37  123.00 57 19.0 True x
6/8/1988 06:25    2.59  167.00 88.4 40.1 True x
6/22/1988 06:00    2.39  199.00 59.6 32.1 True x
6/29/1988 06:00    2.31  208.00 49.2 27.7 True x
7/5/1988 06:05    2.30  170.00 59.6 27.5 True x
7/12/1988 06:30    2.35  147.00 54.3 21.7 True x
7/19/1988 22:30    2.33  142.00 51.8 19.8 True x
7/26/1988 06:30    2.65  190.00 97.8 50.4 True x
8/2/1988 06:45    4.96  253.00 607.6 415.6 True x
8/9/1988 06:25    2.25  171.00 42.1 19.5 True x
8/16/1988 07:00    2.17  318.00 33.5 28.9 True x
8/23/1988 06:45    2.12  159.00 28.8 12.4 True x
5/29/1990 13:50    7.65  223.00 1446 872.7 True x
6/6/1990 13:50    8.58  241.00 1803 1,176.8 True x
6/13/1990 13:15    10.27  192.00 2516 1,305.6 True x
6/20/1990 14:00    16.35  1,369.00 5993 22,157.4 True x
6/27/1990 07:15    10.40  170.00 2575 1,184.1 True x
7/4/1990 14:00    10.01  111.00 2400 722.1 True x
7/11/1990 07:00    8.65  157.00 1831 778.4 True x
7/18/1990 06:45    8.99  162.00 1967 861.5 True x
7/25/1990 07:45    8.93  161.00 1943 849.3 True x
8/1/1990 07:00    8.77  160.00 1878 812.4 True x
8/8/1990 09:00    9.25  350.00 2075 1,962.7 True x
8/15/1990 08:45    8.77  355.00 1878 1,803.1 True x
8/22/1990 08:00    8.70  135.00 1886 688.4 True x
8/29/1990 08:00    6.53  92.00 1056 262.7 True x
9/5/1990 08:00    5.11  76.00 646.3 132.7 True x
9/12/1990 08:45    3.97  56.00 368.3 56.6 True x
9/19/1990 15:18    2.77  61.00 117.7 19.5 True x
9/26/1990 11:00    2.52  95.00 77.9 20.1 True x
10/3/1990 15:00    4.60  973.00 517.3 1,360.2 True x
10/10/1990 08:30    7.43  1,254.00 1364 4,621.8 True x
11/12/1990 13:50    4.90  28.00 592.1 44.9 True x
11/15/1990 14:00    5.17  38.00 661.9 68.5 True x
11/23/1990 11:30    4.30  63.00 444.3 76.1 True x
11/28/1990 11:30    12.05  1,076.00 3371 9,798.0 True x
12/15/1990 11:00    8.95  608.00 1951 3,207.9 True x
12/22/1990 10:30    9.60  665.00 2223 3,996.1 True x
1/5/1991 10:30    13.10  275.00 3895 2,899.9 True x
1/19/1991 10:00    12.75  156.00 3723 1,568.5 True x
1/27/1991 07:55    12.40  176.00 3549 1,689.6 True x
2/10/1991 10:00    16.00  204.00 5745 3,178.0 True x
2/17/1991 10:30    11.10  149.00 2904 1,174.0 True x
2/17/1991 11:30    17.75  233.00 7120 4,489.8 True x
2/25/1991 10:00    10.05  169.00 2418 1,104.6 True x
3/4/1991 13:15    11.10  139.00 2904 1,096.3 True x
3/11/1991 11:30    9.15  142.00 2033 779.9 True x
3/25/1991 13:50    17.70  432.00 7075 8,260.5 True x
3/31/1991 11:30    10.40  430.00 2575 2,991.2 True x
4/7/1991 09:30    9.10  113.00 2013 618.6 True x
4/14/1991 10:00    8.04  157.00 1595 676.8 True x
4/21/1991 10:00    7.35  101.00 1335 367.6 True x
4/28/1991 09:30    6.36  207.00 1003 561.3 True x
5/4/1991 09:30    5.16  139.00 659.3 248.3 True x
5/10/1991 07:45    4.29  142.00 441.9 169.7 True x
5/17/1991 10:45    5.24  443.00 680.3 815.0 True x
5/24/1991 08:45    5.18  189.00 664.5 339.8 True x
5/31/1991 07:30    5.12  192.00 648.9 336.7 True x
6/7/1991 07:00    5.14  140.00 654.1 248.3 True x
6/14/1991 07:30    5.79  119.00 832 267.8 True x
6/19/1991 08:00    5.80  236.00 834.8 532.9 True x
6/25/1991 07:30    3.27  76.00 214.1 43.9 True x
7/2/1991 07:00    3.25  141.00 210 80.3 True x
7/8/1991 08:00    3.40  93.00 241.8 60.9 True x
7/14/1991 08:00    3.10  133.00 179.4 64.5 True x
7/21/1991 08:00    2.60  109.00 89.9 26.7 True x
7/28/1991 09:00    2.46  133.00 69.3 25.0 True x
8/3/1991 08:30    2.44  74.00 66.5 13.5 True x
8/10/1991 07:30    2.00  109.00 18.5 5.4 True x
8/16/1991 08:00    2.42  103.00 63.7 17.8 True x
8/23/1991 08:30    2.17  58.00 33.5 5.3 True x
8/30/1991 07:30    2.05  61.00 22.5 3.7 True x
9/6/1991 07:00    1.95  64.00 14.8 2.6 True x
9/12/1991 07:00    1.94  110.00 14.2 4.2 True x
9/19/1991 08:00    1.94  109.00 14.2 4.2 True x
9/26/1991 09:00    1.93  94.00 13.5 3.4 True x
10/2/1991 08:30    1.90  82.00 11.5 2.5 True x
10/9/1991 13:00    1.87  35.00 9.6 0.9 True x
10/15/1991 09:00    1.85  52.00 8.2 1.2 True x
10/22/1991 09:30    2.15  112.00 31.6 9.6 True x
10/28/1991 08:00    3.05  114.00 169.6 52.6 True x
11/7/1991 08:30    2.74  72.00 112.6 22.1 True x
11/14/1991 08:00    2.45  52.00 67.9 9.7 True x
11/20/1991 08:00    2.80  32.00 122.9 10.8 True x
11/26/1991 08:00    2.78  25.00 119.4 8.4 True x
12/1/1991 08:10    3.05  43.00 169.6 20.0 True x
12/4/1991 14:11    3.36 44.00 233.2 28.3 True x
12/8/1991 07:30    2.77  39.00 117.7 12.7 True x
12/14/1991 08:10    8.70  352.00 1850 1,758.6 True x
12/20/1991 07:45    6.60  29.00 1079 87.2 True x
12/27/1991 09:45    3.45  26.00 252.8 17.8 True x
1/2/1992 08:00    3.27  26.00 214.1 15.4 True x
1/9/1992 08:30    3.29  54.00 218.3 32.2 True x
1/15/1992 09:00    3.35  24.00 231 15.3 True x
1/22/1992 09:15    3.50  29.00 264 20.7 True x
1/29/1992 12:00    4.00  30.00 375 30.6 True x
1/30/1992 13:39    3.85 12.00 341.7 11.8 True x
2/5/1992 10:00    4.10  124.00 397.5 133.9 True x
2/11/1992 10:00    5.38  119.00 717.8 231.7 True x
2/17/1992 09:00    5.36  114.00 712.4 221.0 True x
2/23/1992 09:00    4.90  83.00 592.1 134.2 True x
2/27/1992 09:00    4.20  120.00 420.6 137.3 True x
3/5/1992 09:00    3.60  77.00 285.9 60.2 True x
3/10/1992 09:50    3.27  110.00 214.1 63.9 True x
3/16/1992 07:00    3.25  43.00 210 24.6 True x
3/16/1992 13:28    3.25 52.00 210 29.7 True x
3/22/1992 07:30    4.00  40.00 375 40.6 True x
3/29/1992 07:45    4.70  41.00 541.8 60.8 True x
4/1/1992 07:30    5.64  84.00 789.4 180.5 True x
4/7/1992 08:00    4.60  89.00 517.3 124.6 True x
4/16/1992 09:00    5.23  576.00 677.7 1,054.7 True x
4/22/1992 08:00    5.20  1,010.00 669.8 1,827.0 True x
4/28/1992 08:30    4.25  34.00 432.4 40.5 True x
4/30/1992 12:54    3.69 16 118.00 306.2 97.9 True x
5/4/1992 08:00    3.62  36.00 290.4 28.8 True x
5/10/1992 09:00    3.75  84.00 320 73.2 True x
5/17/1992 09:00    4.09  87.00 395.2 93.8 True x
5/23/1992 09:30    4.01  54.00 377.2 55.9 True x
5/29/1992 09:00    3.80  31.00 330.8 28.0 True x
6/5/1992 09:00    3.45  33.00 252.8 22.6 True x
6/7/1992 09:00    6.30  166.00 984 441.7 True x
6/11/1992 13:21    5.20 22 198.00 669.8 359.6 True x
6/14/1992 09:30    5.60  172.00 778.2 362.3 True x
6/21/1992 10:00    4.20  55.00 420.6 63.2 True x
6/26/1992 09:45    3.23  55.00 205.8 30.8 True x
7/2/1992 10:00    2.90  89.00 141 34.2 True x
7/8/1992 09:30    2.41  96.00 62.4 16.3 True x
7/14/1992 09:30    4.90  156.00 592.1 249.9 True x
7/21/1992 10:00    6.40  115.00 1015 317.7 True x
7/29/1992 09:30    7.17  179.00 1270 617.2 True x
7/29/1992 13:28    7.65 26 190.00 1446 742.4 True x
8/3/1992 07:00    8.11  236.00 1621 1,033.3 True x
8/9/1992 08:00    8.12  165.00 1625 726.6 True x
8/15/1992 08:00    8.14  62.00 1633 273.6 True x
8/21/1992 08:00    8.15  155.00 1637 686.1 True x
8/27/1992 08:00    9.00  195.00 1971 1,039.0 True x
9/3/1992 08:30    6.30  196.00 984 521.1 True x
9/10/1992 09:00    4.99  117.00 615.4 195.6 True x
9/14/1992 13:39    4.43 22 62.00 475.9 80.5 True x
9/17/1992 09:00    3.84  136.00 339.5 124.8 True x
9/23/1992 09:30    2.84  48.00 130 17.2 True x
9/30/1992 10:00    2.75  82.00 114.3 25.6 True x
10/6/1992 09:30    2.70  29.00 148 11.6 True x
10/13/1992 09:30    2.61  26.00 135.1 9.7 True x
10/20/1992 10:00    2.45  26.00 113.5 8.1 True x
10/27/1992 10:00    1.74  25.00 37.3 2.6 True x
10/28/1992 13:44    1.76 13 29.00 39 3.2 True x
11/3/1992 09:30    2.90  22.00 178.2 10.9 True x
11/5/1992 10:30    4.30  100.00 448.2 121.9 True x
11/7/1992 11:00    6.40  100.00 1015 275.5 True x
11/10/1992 10:00    8.25  122.00 1675 554.0 True x
11/12/1992 09:45    9.15  307.00 2033 1,687.7 True x
11/13/1992 10:00    12.05  356.00 3371 3,242.8 True x
11/14/1992 09:30    17.87  285.00 7226 5,577.6 True x
11/17/1992 10:00    14.31  352.00 4583 4,357.9 True x
11/19/1992 14:00    6.90  86.00 1177 274.1 True x
11/24/1992 09:30    6.52  83.00 1053 237.6 True x
11/30/1992 09:30    6.50  111.00 1047 314.7 True x
12/5/1992 09:45    9.15  221.00 2033 1,216.8 True x
12/12/1992 10:00    11.97  231.00 3331 2,082.2 True x
12/13/1992 10:00    12.75  196.00 3723 1,979.5 True x
12/16/1992 09:30    13.00  237.00 3847 2,467.2 True x
12/20/1992 09:00    13.75  241.00 4247 2,766.8 True x
12/22/1992 10:00    16.25  259.00 5921 4,149.5 True x
12/24/1992 10:00    14.70  176.00 4836 2,307.3 True x
12/28/1992 13:23    13.64 117.00 4182 1,324.5 True x
12/30/1992 13:00    15.27  106.00 5235 1,510.6 True x
1/3/1993 10:30    15.45  107.00 5364 1,558.5 True x
1/6/1993 09:00    20.47  219.00 11450 6,785.7 True x
1/11/1993 10:00    17.26  260.00 6704 4,719.8 True x
1/14/1993 10:00    15.00  202.00 5044 2,755.2 True x
1/17/1993 10:15    18.00  74.00 7343 1,480.1 True x
1/23/1993 13:30    22.40  69.00 12810 2,411.0 True x
1/29/1993 10:00    19.05  90.00 8395 2,045.8 True x
2/5/1993 10:00    15.33  68.00 5278 971.2 True x
2/12/1993 13:15    13.86  67.00 4312 789.9 True x
2/19/1993 10:00    11.63  174.00 3163 1,490.4 True x
2/24/1993 10:00    10.94  83.00 2827 637.0 True x
3/3/1993 11:00    9.84  65.00 2326 410.9 True x
3/6/1993 11:00    20.91  142.00 10600 4,091.5 True x
3/12/1993 10:30    18.90  211.00 8230 4,693.7 True x
3/15/1993 13:07    10.54  81.00 2639 577.2 True x
3/17/1993 10:00    12.87  274.00 3782 2,802.7 True x
3/24/1993 10:15    9.67  168.00 2253 1,025.7 True x
3/31/1993 10:00    8.90  175.00 1931 915.8 True x
4/10/1993 10:00    10.72  138.00 2723 1,020.5 True x
4/17/1993 09:00    10.67  131.00 2699 960.5 True x
5/1/1993 09:00    9.56  127.00 2205 756.4 True x
5/12/1993 11:25    10.06 18 107.00 2422 699.9 True x
5/22/1993 09:00    7.75  136.00 1484 548.3 True x
6/28/1993 12:47    4.39 26 85.00 468.8 108.1 True x
7/8/1993 18:30    8.00  118.00 1580 506.8 True x
7/14/1993 16:07    7.67  233.00 1453 917.8 True x
7/20/1993 11:20    8.60 25 459.00 1811 2,245.4 True x
7/29/1993 20:03    4.27 27 82.00 441.6 98.6 True x
8/6/1993 17:24    4.39 24 67.00 468.8 85.0 True x
8/13/1993 17:30    6.52 26 189.00 1053 537.8 True x
8/16/1993 11:59    5.68 28 113.00 800.7 246.1 True x
8/20/1993 17:30    6.30 29 142.00 984 379.6 True x
8/27/1993 17:40    6.25 30 137.00 968.6 360.1 True x
9/3/1993 18:54    15.04 23 594.00 5072 8,143.1 True x
9/10/1993 18:53    7.09 22 196.00 1242 658.4 True x
9/17/1993 12:21    10.39 18 207.00 2570 1,442.1 True x
9/23/1993 13:00    14.76 20 290.00 4877 3,830.5 True x
9/28/1993 12:24    21.06 17 70.00 10820 2,067.8 True x
9/28/1993 13:09    21.02 17 52.00 10760 1,522.6 True x
9/30/1993 15:45    10.77 15 205.00 2746 1,522.9 True x
10/9/1993 17:50    10.40 15 157.00 2575 1,091.5 True x
10/17/1993 17:22    11.39 16 690.00 3046 5,676.3 True x
10/24/1993 16:37    9.73 15 140.00 2278 863.2 True x
10/31/1993 17:04    9.57 10 107.00 2210 640.1 True x
11/7/1993 16:55    9.70 698.00 2265 4,273.0 True x
11/10/1993 13:56    9.63 11 57.00 2235 345.5 True x
11/13/1993 14:00    17.20 11 577.00 6655 10,379.3 True x
11/21/1993 15:51    14.93 141.00 4995 1,914.9 True x
12/3/1993 12:00    17.24 288.00 6687 5,213.0 True x
12/11/1993 15:06    13.90 90.00 4974 1,213.5 True x
12/17/1993 13:55    13.90 86.00 4974 1,156.0 True x
12/21/1993 13:25    14.26 72.00 4553 895.7 True x
12/21/1993 13:59    14.26 74.00 4553 914.1 True x
12/26/1993 15:55    13.77 82.00 4258 950.4 True x
1/2/1994 16:53    13.56 151.00 4135 1,692.2 True x
1/13/1994 13:55    13.74 69.00 4241 791.7 True x
1/21/1994 17:00    14.74 26.00 4864 350.9 True x
1/28/1994 08:45    22.48 239.00 12950 8,379.7 True x
2/4/1994 15:40    15.22 94.00 5199 1,322.6 True x
2/13/1994 17:45    9.84 84.00 2326 531.6 True x
2/16/1994 13:45    9.00 90.00 1972 481.9 True x
2/16/1994 14:17    8.99 93.00 1967 496.9 True x
2/18/1994 15:10    8.47 102.00 1760 485.0 True x
2/26/1994 15:40    9.80 88.00 2309 552.5 True x
3/4/1994 16:39    6.77 131.00 1134 401.8 True x
3/11/1994 10:07    5.63 97.00 786.6 206.8 True x
3/18/1994 18:00    9.53 63.00 2193 377.6 True x
3/25/1994 16:40    7.67 11 54.00 1453 214.5 True x
3/31/1994 10:20    6.50 73.00 1047 206.7 True x
4/6/1994 11:37    5.23 31.00 677.7 58.1 True x
4/6/1994 12:21    5.23 19.00 677.7 36.0 True x
4/7/1994 10:33    6.23 11 101.00 962.5 264.1 True x
4/22/1994 18:06    14.56 14 149.00 4741 1,917.0 True x
5/7/1994 15:50    16.75 14 115.00 6295 1,959.4 True x
5/12/1994 19:05    16.51 18 116.00 6108 1,918.5 True x
5/20/1994 13:25    9.90 20 117.00 2352 746.9 True x
5/20/1994 13:54    9.91 20 106.00 2357 678.6 True x
5/20/1994 15:45    9.00  106.00 1972 564.9 True x
5/29/1994 16:45    8.37  105.00 1721 488.1 True x
6/5/1994 19:14    8.16  144.00 1640 640.9 True x
6/13/1994 16:13    15.85  1,608.00 5641 24,498.0 True x
6/20/1994 15:50    7.05 26 227.00 1228 755.1 True x
6/27/1994 16:30    6.73 24 386.00 1121 1,168.5 True x
7/6/1994 13:41    6.14  118.00 935 299.1 True x
7/6/1994 14:24    6.14  116.00 935 293.8 True x
7/6/1994 16:35    6.11 28 224.00 926 561.4 True x
7/15/1994 17:00    6.00 28 206.00 893 496.9 True x
7/29/1994 16:00    4.43 24 125.00 478 162.4 True x
8/6/1994 16:05    3.15 25 220.00 219.1 130.3 True x
8/14/1994 09:40    2.87 27 112.00 173.5 52.6 True x
8/18/1994 13:38    2.85 27 79.00 170.5 36.7 True x
8/18/1994 14:11    2.85  69.00 170.5 32.1 True x
8/21/1994 12:51    2.75 23 135.00 155.3 56.8 True x
8/28/1994 17:55    2.57 27 90.00 129.6 31.8 True x
9/5/1994 18:15    2.67 20 63.00 143.7 24.5 True x
9/11/1994 17:25    2.58 21 76.00 131 27.0 True x
9/26/1994 15:25    2.71 25 41.00 149.5 16.7 True x
10/3/1994 14:50    2.50 24 29.00 120.1 9.5 True x
10/12/1994 16:15    2.55 20 24.00 126.8 8.4 True x
10/13/1994 13:42    2.55 16 22.00 126.8 7.7 True x
10/13/1994 14:25    2.55  24.00 126.8 8.4 True x
10/23/1994 16:35    2.49 17 72.00 118.7 23.3 True x
10/31/1994 10:55    2.47 13 84.00 116.1 26.6 True x
11/8/1994 15:10    3.96 14 162.00 373.7 164.2 True x
12/3/1994 15:13    6.52  131.00 1053 373.7 True x
12/22/1994 12:10    8.78 105.00 1882 536.4 True x
1/12/1995 11:40    3.96 53.00 373.7 53.6 True x
1/25/1995 13:42    10.55 114.00 2643 819.9 True x
1/25/1995 14:16    10.54 108.00 2639 771.4 True x
3/16/1995 13:22    10.96 10 235.00 2837 1,802.7 True x
3/16/1995 13:49    10.96 10 238.00 2837 1,826.9 True x
5/3/1995 13:29    6.43 13 75.00 1025 210.2 True x
5/3/1995 13:53    6.42 13 77.00 1021 212.7 True x
6/7/1995 13:27    6.81 24 148.00 1147 458.7 True x
6/7/1995 13:53    6.81 24 133.00 1147 414.0 True x
6/14/1995 13:42    7.28 22 166.00 1309 590.2 True x
6/28/1995 13:29    10.09 22 225.00 2436 1,486.2 True x
7/13/1995 13:11    9.06 26 134.00 1996 723.9 True x
7/18/1995 13:15    8.61 25 174.00 1815 853.6 True x
7/18/1995 13:44    8.59 25 147.00 1807 720.8 True x
7/31/1995 13:30    8.19 27 172.00 1652 771.0 True x
8/16/1995 13:33    7.37 28 126.00 1342 458.1 True x
8/24/1995 11:58    7.87 27 164.00 1530 681.0 True x
8/24/1995 13:15    7.87 27 173.00 1530 715.1 True x
8/24/1995 13:20    7.87 27 175.00 1530 723.1 True x
8/29/1995 09:55    7.17 27 163.00 1270 561.7 True x
9/4/1995 15:20    6.46 28 986.00 1034 2,752.9 True x
9/6/1995 13:09    6.43 25 139.00 1025 384.7 True x
9/6/1995 13:34    6.43 25 137.00 1025 379.6 True x
9/13/1995 13:45    5.27 25 139.00 688.3 259.3 True x
9/19/1995 10:10    3.63 20 91.00 306.8 76.0 True x
9/26/1995 11:30    2.86 16 122.00 172 57.1 True x
10/4/1995 10:40    2.67 18 96.00 143.7 37.6 True x
10/10/1995 17:35    2.58 17 88.00 131 31.5 True x
10/19/1995 10:01    2.48 16 85.00 117.4 27.0 True x
10/19/1995 13:15    2.48 18 82.00 117.4 26.1 True x
10/19/1995 13:41    2.48 18 66.00 117.4 21.0 True x
10/31/1995 10:30    2.47 12 76.00 116.1 23.9 True x
11/7/1995 14:05    2.50 71.00 120.1 23.3 True x
11/15/1995 10:53    2.68 54.00 145.1 21.4 True x
11/22/1995 10:22    2.46 43.00 114.8 13.6 True x
11/29/1995 10:15    2.46 67.00 114.8 20.9 True x
12/5/1995 10:36    2.50 55.00 120.1 18.1 True x
12/5/1995 12:50    2.45 60.00 113.5 18.4 True x
12/5/1995 13:20    2.45 69.00 113.5 21.3 True x
12/20/1995 10:50    6.37 90.00 1006 244.6 True x
12/27/1995 10:30    6.53 77.00 1056 221.8 True x
1/3/1996 11:10    6.91 40.00 1180 128.1 True x
1/17/1996 13:45    6.33 81.00 993.3 219.8 True x
1/23/1996 10:45    12.68 38.00 3688 388.1 True x
1/31/1996 11:30    8.39 40.00 1729 186.9 True x
2/7/1996 10:15    6.22 45.00 959.4 116.6 True x
2/15/1996 13:58    5.33 44.00 704.3 84.9 True x
2/15/1996 14:12    5.33 42.00 704.3 80.6 True x
2/15/1996 14:44    5.33 43.00 704.3 82.0 True x
2/21/1996 09:30    4.19 86.00 423.5 99.0 True x
2/27/1996 10:45    4.36 102.00 461.9 127.6 True x
3/5/1996 08:55    6.73 102.00 1121 311.0 True x
3/12/1996 10:15    7.86 578.00 1526 2,382.3 True x
3/19/1996 08:30    7.56 511.00 1412 1,948.6 True x
3/27/1996 10:45    8.45 527.00 1752 2,494.1 True x
4/2/1996 13:55    16.70 544.00 6256 9,190.5 True x
4/2/1996 14:27    16.68 541.00 6240 9,126.6 True x
4/3/1996 11:55    12.60 10 586.00 3649 5,779.5 True x
4/10/1996 10:30    11.50 223.00 3100 1,869.5 True x
4/14/1996 10:50    9.46 712.00 2163 4,160.6 True x
4/24/1996 14:30    18.12 958.00 7451 19,273.3 True x
5/7/1996 13:13    17.04 17 242.00 6526 4,276.3 True x
5/7/1996 13:44    16.93 17 258.00 6438 4,492.6 True x
5/9/1996 14:30    23.42 20 700.00 14770 27,920.4 True x
5/15/1996 10:55    22.49 19 718.00 12970 25,167.0 True x
5/22/1996 09:45    15.63 19 232.00 5489 3,438.3 True x
5/30/1996 15:00    20.05 19 207.00 9496 5,314.0 True x
6/6/1996 09:35    13.45 19 510.00 4074 5,614.4 True x
6/11/1996 12:15    15.62 19 536.00 5482 7,941.1 True x
6/18/1996 13:13    15.53 24 1,027.00 5420 15,031.2 True x
6/18/1996 13:50    15.59 24 958.00 5461 14,129.0 True x
6/20/1996 09:45    13.63 12 128.00 4176 1,451.2 True x
6/26/1996 11:35    14.23 14 145.00 4534 1,776.1 True x
7/3/1996 09:30    11.25 19 132.00 2977 1,067.9 True x
7/10/1996 10:45    9.94 21 121.00 2370 775.0 True x
7/18/1996 15:05    9.15 25 126.00 2033 695.5 True x
7/24/1996 10:05    8.79 25 207.00 1886 1,054.7 True x
7/31/1996 08:55    7.90 25 167.00 1541 695.7 True x
8/7/1996 14:55    7.80 27 145.00 1503 589.5 True x
8/8/1996 13:15    7.65 26 227.00 1446 887.4 True x
8/8/1996 13:39    7.65 26 233.00 1446 910.1 True x
8/14/1996 10:30    7.36 26 135.00 1338 491.1 True x
8/21/1996 09:45    6.72 26 139.00 1117 422.2 True x
8/28/1996 10:45    5.48 25 129.00 745 260.3 True x
9/4/1996 12:30    4.10 23 113.00 403.7 124.0 True x
9/13/1996 14:30    2.59 22 118.00 132.4 42.3 True x
9/18/1996 09:45    2.57 20 69.00 129.6 24.2 True x
9/18/1996 13:12    2.62 19 84.00 136.6 31.0 True x
9/18/1996 13:42    2.62 19 57.00 136.6 21.3 True x
9/25/1996 10:30    2.49 18 75.00 118.7 24.2 True x
10/3/1996 08:55    2.39 14 65.00 105.7 18.8 True x
10/11/1996 11:30    2.33 12 76.00 98.2 20.3 True x
10/17/1996 11:05    2.21 16 74.00 83.9 16.9 True x
11/5/1996 13:19    2.24 11 66.00 87.4 15.6 True x
11/5/1996 13:43    2.24 11 64.00 87.4 15.1 True x
11/27/1996 14:05    7.21 695.00 1284 2,411.1 True x
12/4/1996 09:05    7.14 97.00 1259 333.0 True x
12/11/1996 10:50    6.86 102.00 1163 322.0 True x
12/18/1996 09:30    6.70 97.00 1111 291.5 True x
12/23/1996 12:32    7.45 70.00 1371 261.0 True x
12/23/1996 12:55    7.45 71.00 1371 263.9 True x
12/26/1996 10:11    7.85 94.00 1522 386.5 True x
1/3/1997 09:55    6.15 96.00 938.1 245.3 True x
1/7/1997 09:22    4.76 237.00 557.3 357.2 True x
1/29/1997 10:45    5.93 231.00 872.5 545.4 True x
2/5/1997 11:30    6.49 679.00 1044 1,915.3 True x
2/11/1997 13:03    11.76 315.00 3227 2,752.3 True x
2/11/1997 13:36    11.76 205.00 3227 1,793.8 True x
2/13/1997 09:35    8.45 199.00 1752 944.4 True x
2/19/1997 10:30    7.68 223.00 1457 880.8 True x
3/4/1997 11:15    14.35 204.00 4608 2,545.7 True x
3/12/1997 10:30    18.15 148.00 7478 2,994.3 True x
3/17/1997 09:15    16.70 138.00 6256 2,337.1 True x
3/20/1997 13:04    16.28 133.00 5943 2,138.4 True x
3/20/1997 13:37    16.25 135.00 5921 2,166.2 True x
3/27/1997 10:45    17.65 251.00 7031 4,772.4 True x
4/3/1997 08:00    11.70 179.00 3198 1,546.9 True x
4/10/1997 13:45    6.85 153.00 1160 480.6 True x
4/17/1997 11:30    4.12 10 64.00 408.1 71.4 True x
4/25/1997 08:30    5.31 10 156.00 699 296.0 True x
5/2/1997 10:45    4.80 11 131.00 567.3 201.4 True x
5/6/1997 12:52    4.21 14 51.00 427.9 59.5 True x
5/6/1997 13:15    4.21 14 47.00 427.9 54.7 True x
5/8/1997 09:30    3.30 13 32.00 245.2 21.7 True x
5/14/1997 15:30    3.35 14 950.00 254.2 652.6 True x
5/22/1997 08:45    3.76 17 218.00 332.5 196.0 True x
5/29/1997 12:00    4.26 18 243.00 439.1 288.2 True x
6/2/1997 08:30    3.68 19 163.00 316.6 139.3 True x
6/9/1997 10:00    7.55 18 795.00 1408 3,024.9 True x
6/18/1997 10:30    7.33 21 647.00 1327 2,321.5 True x
6/18/1997 12:56    7.34 22 217.00 1331 780.6 True x
6/18/1997 13:21    7.34 22 216.00 1331 779.6 True x
6/26/1997 10:45    8.74 25 631.00 1866 3,183.7 True x
7/3/1997 08:30    8.23 26 648.00 1667 2,919.0 True x
7/9/1997 13:15    7.94 27 102.00 1557 431.9 True x
7/15/1997 09:30    7.61 27 373.00 1431 1,441.8 True x
7/25/1997 08:00    3.75 30 108.00 330.5 97.2 True x
7/31/1997 08:15    3.26 28 48.00 238.1 31.1 True x
8/7/1997 12:56    2.60 23 94.00 133.7 34.2 True x
8/7/1997 13:20    2.60 23 82.00 133.7 29.7 True x
8/8/1997 09:30    3.18 28 66.00 224.2 40.1 True x
8/15/1997 14:50    2.94 27 46.00 184.5 23.0 True x
8/29/1997 08:30    2.73 23 70.00 152.4 29.1 True x
9/3/1997 07:30    2.76 24 23.00 156.8 9.9 True x
9/12/1997 07:45    2.69 22 52.00 146.5 21.0 True x
9/16/1997 13:02    2.43 24 64.00 110.9 19.3 True x
9/16/1997 13:29    2.43 24 73.00 110.9 21.9 True x
9/19/1997 08:05    2.65 21 35.00 140.8 13.6 True x
10/2/1997 10:30    2.45 18 29.00 67.9 5.4 True x
10/10/1997 07:30    2.40 16 35.00 61 5.8 True x
10/16/1997 08:00    2.38 12 35.00 58.3 5.6 True x
10/23/1997 13:10    2.36 10 37.00 55.6 5.7 True x
11/5/1997 09:30    2.83 10 84.00 128.2 29.2 True x
11/20/1997 11:30    2.74 92.00 112.6 28.1 True x
11/26/1997 09:15    2.71 12.00 107.5 3.7 True x
12/4/1997 08:45    2.66 76.00 99.4 20.6 True x
12/10/1997 13:45    2.60 90.00 89.9 22.0 True x
12/16/1997 09:30    2.84 124.00 130 43.7 True x
12/17/1997 12:59    2.54 33.00 80.8 7.4 True x
12/17/1997 13:26    2.54 43.00 80.8 9.5 True x
12/23/1997 06:45    3.14 126.00 187.4 63.9 True x
12/29/1997 09:00    4.87 82.00 584.5 130.6 True x
1/7/1998 09:30    6.61 122.00 1082 359.3 True x
1/14/1998 08:15    7.10 77.00 1245 259.1 True x
1/20/1998 11:00    8.89 88.00 1927 460.0 True x
1/20/1998 13:16    8.69 81.00 1846 407.6 True x
1/20/1998 13:42    8.69 83.00 1846 414.2 True x
1/28/1998 15:19    6.97 77.00 1200 250.4 True x
2/4/1998 09:30    7.10 62.00 1245 209.6 True x
2/11/1998 10:00    7.23 62.00 1291 218.8 True x
2/19/1998 10:11    7.40 10 150.00 1353 549.6 True x
2/27/1998 13:03    7.96 11 132.00 1564 560.4 True x
3/4/1998 12:45    7.89 61.00 1537 255.9 True x
3/4/1998 13:24    7.87 59.00 1530 244.0 True x
3/4/1998 13:50    7.85 59.00 1522 245.1 True x
3/13/1998 14:12    9.64 177.00 2240 1,072.2 True x
3/20/1998 17:26    19.76 588.00 9179 14,592.6 True x
3/27/1998 10:40    16.62 14 197.00 6193 3,301.7 True x
4/3/1998 08:25    17.57 229.00 6961 4,317.9 True x
4/10/1998 07:20    14.32 148.00 4589 1,837.4 True x
4/17/1998 07:40    19.47 11 201.00 8866 4,825.3 True x
4/21/1998 12:53    11.34 14 155.00 3021 1,272.1 True x
4/21/1998 13:18    11.32 14 157.00 3011 1,276.7 True x
4/24/1998 07:00    9.95 12 120.00 2374 770.4 True x
5/1/1998 08:00    11.59 14 323.00 3144 2,742.8 True x
5/8/1998 08:24    13.79 15 747.00 4270 8,614.0 True x
5/15/1998 08:00    9.41 20 115.00 2142 667.4 True x
5/22/1998 09:45    8.49 18 280.00 1768 1,339.4 True x
5/29/1998 07:30    9.48 21 140.00 2172 821.3 True x
6/2/1998 13:15    8.64 23 125.00 1827 619.9 True x
6/2/1998 13:37    8.64 23 141.00 1827 696.6 True x
6/5/1998 16:05    9.13 18 97.00 2025 534.4 True x
6/12/1998 08:09    11.19 22 1,595.00 2948 12,696.0 True x
6/19/1998 06:26    11.68 21 186.00 3188 1,608.5 True x
6/26/1998 08:35    11.46 24 195.00 3080 1,624.1 True x
7/2/1998 06:39    11.83 23 192.00 3262 1,695.1 True x
7/9/1998 07:04    17.40 25 208.00 6818 3,842.5 True x
7/16/1998 07:21    9.45 23 219.00 2159 1,276.9 True x
7/23/1998 07:11    12.52 24 862.00 3610 8,409.5 True x
7/30/1998 06:52    8.01 25 264.00 1584 1,129.2 True x
8/6/1998 06:53    12.72 23 558.00 3708 5,594.7 True x
8/10/1998 12:38    6.44 26 116.00 1028 324.4 True x
8/10/1998 13:02    6.44 26 115.00 1028 319.5 True x
8/13/1998 06:25    8.73 23 188.00 1862 948.6 True x
8/20/1998 06:27    8.40 24 193.00 1732 903.6 True x
8/27/1998 06:36    8.64 24 203.00 1827 1,004.5 True x
9/3/1998 07:08    7.89 23 194.00 1537 806.0 True x
9/10/1998 07:45    4.53 19 111.00 500.5 150.6 True x
9/17/1998 07:05    2.85 22 121.00 131.8 43.2 True x
9/24/1998 07:02    2.54 17 106.00 80.8 23.3 True x
10/1/1998 07:15    2.24 18 71.00 40.9 7.9 True x
10/8/1998 07:21    2.50 15 50.00 75 10.3 True x
10/15/1998 07:40    2.22 13 52.00 38.7 5.4 True x
10/21/1998 07:21    2.32 13 40.00 50.5 5.5 True x
10/21/1998 13:17    2.34 15 37.00 53 5.4 True x
10/21/1998 13:43    2.34 15 42.00 53 6.0 True x
10/29/1998 07:00    2.13 15 57.00 29.7 4.7 True x
11/5/1998 07:00    3.03 111.00 165.7 49.9 True x
11/12/1998 10:47    4.26 247.00 434.7 290.2 True x
11/19/1998 07:00    2.46 47.00 69.3 8.9 True x
11/26/1998 07:00    2.37 38.00 57 5.9 True x
12/3/1998 07:45    2.43 11 46.00 65.1 8.2 True x
12/10/1998 07:05    2.37 31.00 57 4.8 True x
12/14/1998 13:06    2.26 38.00 43.2 4.6 True x
12/14/1998 13:35    2.26 49.00 43.2 5.8 True x
12/17/1998 07:15    2.28 43.00 45.6 5.4 True x
12/24/1998 07:30    6.40 151.00 1015 414.1 True x
12/31/1998 07:30    7.48 87.00 1382 325.1 True x
1/14/1999 07:05    9.31 281.00 2100 1,595.8 True x
1/21/1999 07:30    11.50 418.00 3100 3,503.3 True x
1/28/1999 07:05    13.67 231.00 4199 2,620.4 True x
2/4/1999 07:20    17.43 217.00 6842 4,024.9 True x
2/9/1999 13:48    24.93 278.00 18090 13,593.1 True x
2/11/1999 07:40    18.31 10 193.00 7625 3,974.9 True x
2/18/1999 07:38    12.36 148.00 3528 1,416.2 True x
2/25/1999 06:36    11.34 61.00 3021 502.8 True x
3/4/1999 07:07    8.89 65.00 1927 340.7 True x
3/11/1999 07:35    9.39 56.00 2133 324.3 True x
3/18/1999 07:10    7.08 58.00 1238 195.8 True x
3/25/1999 06:10    7.03 80.00 1220 266.6 True x
4/1/1999 07:04    5.40 10 38.00 723.2 74.6 True x
4/8/1999 07:05    5.65 15 144.00 792.2 309.8 True x
4/15/1999 06:45    5.80 11 166.00 834.8 376.3 True x
4/22/1999 07:30    8.98 15 294.00 1963 1,561.4 True x
4/29/1999 07:45    14.04 16 600.00 4420 7,166.3 True x
5/6/1999 07:05    12.19 18 490.00 3442 4,555.2 True x
5/11/1999 13:24    7.53 20 124.00 1401 470.5 True x
5/11/1999 14:09    7.52 20 125.00 1397 473.1 True x
5/13/1999 07:20    11.00 17 964.00 2856 7,436.4 True x
5/20/1999 06:00    6.56 18 109.00 1066 316.4 True x
5/27/1999 06:17    7.39 16 105.00 1349 382.5 True x
6/3/1999 06:30    15.69 19 1,118.00 5530 16,692.8 True x
6/8/1999 06:00    8.31 22 306.00 1698 1,402.9 True x
6/8/1999 13:03    8.17 25 240.00 1644 1,068.8 True x
6/8/1999 13:28    8.17 25 241.00 1644 1,073.7 True x
6/17/1999 07:30    8.65 19 198.00 1831 983.6 True x
6/24/1999 06:00    7.47 22 129.00 1379 482.8 True x
7/1/1999 06:30    7.19 23 155.00 1277 535.7 True x
7/8/1999 06:30    7.28 23 128.00 1309 454.7 True x
7/15/1999 07:00    7.53 24 187.00 1401 710.2 True x
7/20/1999 13:14    6.52 29 134.00 1053 383.8 True x
7/20/1999 13:49    6.52  140.00 1053 400.5 True x
7/23/1999 06:00    6.23 26 142.00 962.5 370.5 True x
7/29/1999 06:00    7.87 25 213.00 1530 883.0 True x
8/5/1999 06:00    5.70 23 121.00 806.3 264.7 True x
8/12/1999 06:30    3.15 24 128.00 189.4 65.5 True x
8/19/1999 07:30    2.73 24 202.00 110.9 60.7 True x
8/26/1999 07:15    2.65 25 76.00 97.8 20.3 True x
9/2/1999 06:45    2.35 22 96.00 54.3 14.2 True x
9/9/1999 07:00    2.31 23 87.00 49.2 11.6 True x
9/16/1999 07:45    2.17 18 139.00 33.5 12.6 True x
9/23/1999 07:30    2.14 16 59.00 30.7 4.9 True x
9/30/1999 08:00    2.17 15 29.00 33.5 2.6 True x
10/7/1999 07:20    2.22 17 58.00 38.7 6.1 True x
10/14/1999 07:30    2.09 14 40.00 26.1 2.8 True x
10/15/1999 13:59    2.12 16 41.00 28.8 3.2 True x
10/28/1999 07:30    2.40 10 19.00 61 3.2 True x
11/4/1999 07:06    2.42 22.00 63.7 3.8 True x
11/11/1999 07:00    2.33 10 22.00 51.8 3.2 True x
11/18/1999 07:10    2.22 148.00 38.7 15.5 True x
11/25/1999 07:05    2.10 30.00 27 2.2 True x
12/2/1999 07:00    2.11 32.00 27.9 2.4 True x
12/7/1999 12:50    2.33 9.00 51.8 1.3 True x
12/7/1999 13:21    2.33  20.00 51.8 2.8 True x
12/9/1999 07:30    2.12 29.00 28.8 2.3 True x
12/16/1999 08:00    3.20 28.00 199.6 15.5 True x
12/23/1999 08:00    4.00 65.00 375 66.8 True x
12/30/1999 10:00    5.10 74.00 643.7 130.3 True x
1/6/2000 08:00    5.50 63.00 750.5 128.0 True x
1/13/2000 08:00    5.54 42.00 761.5 87.8 True x
1/19/2000 12:58    5.24 24.00 680.3 45.8 True x
1/19/2000 13:33    5.24  26.00 680.3 49.1 True x
2/3/2000 08:00    2.32 41.00 50.5 5.6 True x
2/10/2000 07:30    3.00 71.00 160 30.9 True x
2/17/2000 08:00    3.72 72.00 313.1 60.9 True x
2/24/2000 07:00    3.64 85.00 294.9 68.3 True x
3/2/2000 07:00    3.63 10 94.00 292.6 74.5 True x
3/9/2000 07:00    3.65 11 122.00 297.1 98.5 True x
3/16/2000 07:00    2.82 72.00 126.4 24.6 True x
3/23/2000 07:15    4.45 133.00 480.8 172.9 True x
3/30/2000 06:30    4.60 70.00 517.3 98.8 True x
4/6/2000 07:00    2.81 11 74.00 124.7 25.2 True x
4/11/2000 13:11    3.11 13 11.00 181.4 5.8 True x
4/11/2000 13:32    3.11  9.00 181.4 4.8 True x
4/13/2000 06:30    2.83 36.00 128.2 12.5 True x
4/20/2000 06:30    3.74 11 90.00 317.7 77.9 True x
4/27/2000 06:30    2.63 16 93.00 94.6 23.8 True x
5/4/2000 06:30    2.54 18 121.00 80.8 26.5 True x
5/11/2000 07:00    3.58 18 110.00 281.5 83.9 True x
5/18/2000 06:30    2.65 19 56.00 97.8 15.0 True x
5/25/2000 07:00    4.20 19 558.00 420.6 634.7 True x
5/25/2000 13:14    3.80 23 320.00 330.8 285.9 True x
5/25/2000 13:47    3.78  292.00 326.5 257.5 True x
6/1/2000 06:00    3.86 21 120.00 343.9 111.9 True x
6/8/2000 07:00    2.61 19 57.00 91.5 14.2 True x
6/15/2000 06:00    5.75 20 786.00 820.5 1,742.3 True x
6/22/2000 07:00    14.48 21 1,246.00 4688 15,776.0 True x
6/28/2000 07:00    18.12 21 173.00 7451 3,491.8 True x
6/29/2000 07:00    9.65 23 357.00 2244 2,168.1 True x
7/6/2000 07:00    16.85 24 394.00 6374 6,790.6 True x
7/10/2000 12:51    9.74 28 250.00 2283 1,543.8 True x
7/10/2000 13:28    9.69  261.00 2261 1,595.3 True x
7/13/2000 07:00    14.75 23 141.00 4871 1,859.7 True x
7/20/2000 07:00    7.68 22 155.00 1457 610.6 True x
7/27/2000 07:00    7.63 23 141.00 1438 550.1 True x
8/3/2000 06:00    6.09 24 103.00 919.9 256.6 True x
8/10/2000 07:00    5.46 25 133.00 739.5 266.4 True x
8/17/2000 07:30    5.15 25 132.00 656.7 234.2 True x
8/17/2000 13:14    5.16 28 70.00 659.3 125.0 True x
8/17/2000 13:37    5.16  99.00 659.3 176.8 True x
8/24/2000 07:30    8.74 25 166.00 1866 836.3 True x
8/31/2000 07:30    6.68 25 102.00 1104 306.2 True x
9/7/2000 07:20    5.02 25 139.00 623.1 235.1 True x
9/14/2000 06:30    5.30 20 131.00 696.3 247.4 True x
9/21/2000 06:43    5.92 17 135.00 869.5 318.1 True x
9/28/2000 07:30    7.06 13 129.00 1231 429.1 True x
10/2/2000 12:20    7.53 20 120.00 1333 433.9 True x
10/2/2000 12:43    7.53  122.00 1333 441.1 True x
10/5/2000 07:25    18.78 12 334.00 7324 6,616.5 True x
10/12/2000 07:35    9.62  216.00 2106 1,229.0 True x
10/19/2000 07:15    8.45  75.00 1658 337.9 True x
10/26/2000 07:35    7.20  79.00 1223 261.9 True x
11/2/2000 07:45    6.82  49.00 1100 147.3 True x
11/6/2000 13:04    6.91 13 41.00 1129 125.7 True x
11/6/2000 13:42    6.91  43.00 1129 131.2 True x
11/9/2000 07:30    12.16 186.00 3217 1,618.8 True x
11/16/2000 07:25    8.16 53.00 1553 224.6 True x
11/23/2000 07:05    10.61 115.00 2513 782.6 True x
11/30/2000 07:30    8.28 54.00 1596 233.7 True x
12/7/2000 07:00    9.78 151.00 2170 889.2 True x
12/14/2000 07:15    9.62 73.00 2106 419.5 True x
1/4/2001 07:15    10.42 82.00 2433 542.7 True x
1/11/2001 07:00    11.80 219.00 3043 1,801.8 True x
1/18/2001 07:00    11.11 141.00 2728 1,043.2 True x
1/25/2001 08:00    11.20 80.00 2767 603.7 True x
2/1/2001 07:00    18.14 321.00 6788 5,895.4 True x
2/5/2001 12:47    11.38 182.00 2847 1,406.5 True x
2/5/2001 13:18    11.37  176.00 2842 1,355.9 True x
2/8/2001 07:15    11.22 187.00 2776 1,407.0 True x
2/13/2001 07:30    12.04 148.00 3159 1,270.5 True x
2/22/2001 07:00    15.35 247.00 4914 3,287.9 True x
3/1/2001 07:30    17.84 235.00 6573 4,186.5 True x
3/8/2001 07:15    12.29 130.00 3281 1,154.2 True x
3/15/2001 07:00    13.20 76.00 3743 776.0 True x
3/20/2001 13:50    8.21 75.00 1571 322.0 True x
3/20/2001 14:16    8.19  94.00 1564 400.5 True x
3/22/2001 07:00    8.31 61.00 1607 267.8 True x
3/29/2001 06:45    6.55 66.00 1015 182.8 True x
4/5/2001 06:30    5.46 12 86.00 713.6 167.1 True x
4/12/2001 07:00    6.30 12 123.00 942.9 314.3 True x
4/19/2001 07:00    6.72 15 73.00 1068 211.2 True x
4/26/2001 07:30    7.02 18 131.00 1164 411.8 True x
5/3/2001 06:38    3.63 20 83.00 265.5 60.1 True x
5/9/2001 13:12    3.44 21 85.00 226.8 52.6 True x
5/9/2001 13:44    3.44  100.00 226.8 61.5 True x
5/10/2001 06:33    3.25 20 102.00 187.2 52.0 True x
5/17/2001 06:30    5.35 16 418.00 682.5 771.2 True x
5/24/2001 06:30    7.54 16 411.00 1337 1,484.2 True x
5/31/2001 06:35    15.75 18 407.00 5159 5,676.7 True x
6/7/2001 06:20    17.00 18 1,083.00 5987 17,514.2 True x
6/14/2001 06:30    12.52 18 175.00 3396 1,605.1 True x
6/20/2001 07:00    6.88 23 156.00 1119 472.7 True x
6/20/2001 13:39    6.77 25 133.00 1084 390.8 True x
6/20/2001 14:13    6.75  142.00 1078 414.9 True x
6/28/2001 07:00    6.71 27 149.00 1065 428.7 True x
7/5/2001 07:00    5.80 26 118.00 804.6 256.8 True x
7/12/2001 06:35    5.15 24 120.00 627.3 203.9 True x
7/19/2001 06:45    8.76 23 856.00 1773 4,098.5 True x
7/25/2001 13:20    7.44 28 272.00 1303 960.0 True x
7/25/2001 13:44    7.47  274.00 1313 973.6 True x
7/26/2001 07:28    6.06 26 235.00 875.7 556.2 True x
8/2/2001 06:31    5.65 26 34.00 764.5 71.0 True x
8/9/2001 06:45    5.52 25 34.00 730.2 68.1 True x
8/16/2001 06:35    5.05 26 36.00 600.3 58.8 True x
8/23/2001 06:40    4.72 25 35.00 514.5 49.4 True x
8/30/2001 07:30    3.03 25 49.00 145.7 19.6 True x
9/6/2001 07:15    3.00 24 31.00 140.4 11.8 True x
9/10/2001 12:59    2.91 23 56.00 125.2 19.2 True x
9/10/2001 13:34    2.91  59.00 125.2 20.3 True x
9/13/2001 07:30    2.72 20 34.00 95.6 8.8 True x
9/20/2001 07:20    2.42 19 46.00 55.6 7.0 True x
9/27/2001 07:00    2.48 20 36.00 63.3 6.3 True x
10/4/2001 07:00    3.12 19 67.00 162.1 29.4 True x
10/11/2001 07:00    4.52 16 64.00 464.9 80.7 True x
10/18/2001 07:00    5.05 12 95.00 600.3 154.3 True x
10/25/2001 07:30    7.62 13 421.00 1364 1,551.1 True x
10/25/2001 13:21    8.57 14 653.00 1703 3,005.8 True x
10/25/2001 14:24    8.59  545.00 1710 2,519.7 True x
11/1/2001 07:30    7.72 19 63.00 1398 239.4 True x
11/8/2001 07:30    7.50 18 62.00 1323 222.4 True x
11/15/2001 07:30    7.32 18 56.00 1263 193.9 True x
11/22/2001 07:00    6.35 17 59.00 957.1 154.9 True x
11/29/2001 07:00    6.48 11 77.00 994.2 209.1 True x
12/5/2001 13:16    6.74 11 85.00 1075 249.5 True x
12/5/2001 13:44    6.74  89.00 1075 258.5 True x
12/7/2001 07:30    7.25 85.00 1239 287.2 True x
12/14/2001 07:30    7.65 87.00 1374 326.4 True x
12/21/2001 07:30    8.30 84.00 1604 364.3 True x
12/28/2001 07:30    9.15 89.00 1922 462.0 True x
1/3/2002 07:30    9.24 230.00 1957 1,218.6 True x
1/10/2002 07:00    10.18 122.00 2333 769.3 True x
1/17/2002 07:00    10.26 107.00 2366 687.7 True x
1/17/2002 13:22    9.01 63.00 1868 318.3 True x
1/17/2002 13:54    9.01  69.00 1868 351.0 True x
1/24/2002 07:00    10.35 114.00 2404 746.1 True x
1/31/2002 07:00    10.71 113.00 2556 784.3 True x
2/7/2002 07:00    10.89 170.00 2633 1,212.6 True x
2/14/2002 07:00    11.22 173.00 2776 1,300.9 True x
2/21/2002 07:30    12.36 594.00 3316 5,323.4 True x
2/28/2002 07:30    10.42 157.00 2433 1,037.7 True x
3/6/2002 06:45    10.20 100.00 2342 632.5 True x
3/6/2002 12:55    10.19 81.00 2337 514.3 True x
3/6/2002 13:30    10.19  80.00 2337 505.6 True x
3/14/2002 06:30    11.90 93.00 3091 782.9 True x
3/21/2002 06:30    12.90 343.00 3588 3,328.5 True x
3/28/2002 06:30    11.35 127.00 2833 974.0 True x
4/4/2002 06:30    9.01 201.00 1868 1,017.3 True x
4/11/2002 07:10    11.13 11 243.00 2737 1,802.2 True x
4/17/2002 13:03    10.00 17 179.00 2259 1,094.5 True x
4/17/2002 13:35    10.00  201.00 2259 1,227.3 True x
4/18/2002 06:30    15.87 13 136.00 5236 1,924.1 True x
4/25/2002 06:30    17.52 14 137.00 6347 2,348.5 True x
5/2/2002 06:45    19.27 15 153.00 7817 3,246.0 True x
5/9/2002 07:30    23.61 20 224.00 14430 8,737.8 True x
5/16/2002 07:00    20.65 21 214.00 9308 5,392.4 True x
5/23/2002 07:30    17.72 22 215.00 6488 3,769.0 True x
5/30/2002 07:30    12.72 22 233.00 3497 2,209.3 True x
6/6/2002 07:00    11.43 22 217.00 2869 1,683.7 True x
6/7/2002 06:45    10.17 22 418.00 2329 2,633.3 True x
6/13/2002 07:00    9.75 24 262.00 2158 1,526.6 True x
6/20/2002 06:30    8.05 21 126.00 1514 518.2 True x
7/4/2002 06:30    11.53 22 49.00 2914 385.9 True x
7/11/2002 07:00    9.64 21 171.00 2114 979.8 True x
7/17/2002 13:13    9.51 23 90.00 2062 502.8 True x
7/17/2002 13:48    9.51  91.00 2062 510.6 True x
7/18/2002 07:00    9.25 22 119.00 1960 634.2 True x
7/25/2002 07:00    8.72 22 125.00 1758 595.8 True x
8/1/2002 07:30    8.20 22 117.00 1568 498.7 True x
8/8/2002 07:30    6.32 22 115.00 948.5 294.6 True x
8/15/2002 07:30    5.45 24 126.00 710.7 242.2 True x
8/22/2002 07:30    4.20 24 44.00 388.5 46.4 True x
8/29/2002 07:30    4.05 24 24.00 354.4 23.3 True x
9/5/2002 07:30    3.45 24 27.00 228.9 17.3 True x
9/11/2002 06:30    3.28 25 117.00 193.2 61.5 True x
9/18/2002 07:00    3.32 20 30.00 201.3 16.8 True x
9/25/2002 06:30    3.51 19 31.00 241.9 20.3 True x
10/2/2002 06:30    3.64 17 25.00 267.5 18.7 True x
10/9/2002 13:32    3.18 17 28.00 173.5 13.5 True x
10/16/2002 07:30    2.35 12 48.00 47.23 6.2 True x
10/23/2002 07:30    2.44 12 60.00 58.1 9.5 True x
10/31/2002 14:09    2.70 10 25.00 92.69 6.5 True x
8/7/2003 13:44    3.00 27 47.00 173 22.1 True x
9/9/2003 13:57    5.23 25 469.00 684 867.1 True x
9/15/2003 11:31    3.02 22 22.00 177 11.0 True x
9/23/2003 10:14    2.47 20 89.00 89.7 21.6 True x
9/23/2003 11:42    2.48 20 67.00 91.2 16.7 True x
9/27/2003 12:46    3.01 19 65.00 175 31.1 True x
10/4/2003 11:17    2.43 13 14.00 84.2 3.3 True x
10/11/2003 12:08    3.31 19 25.00 230 16.1 True x
10/18/2003 08:42    3.20 12 31.00 210 17.7 True x
10/26/2003 12:10    2.44 14 128.00 85.5 29.8 True x
11/4/2003 11:44    2.73 19 53.00 129 18.6 True x
11/5/2003 13:00    2.65 14 31.00 116 10.0 True x
11/5/2003 13:43    2.65  27.00 116 8.6 True x
11/10/2003 10:06    2.47 41.00 89.7 10.0 True x
11/19/2003 09:44    19.55 13 276.00 8110 6,051.9 True x
11/26/2003 08:43    10.02 186.00 2380 1,199.4 True x
12/2/2003 09:43    8.86 152.00 1910 787.8 True x
12/9/2003 08:16    8.62 104.00 1820 511.4 True x
12/15/2003 10:10    8.54 85.00 1790 414.1 True x
12/23/2003 15:02    12.76 198.00 3620 1,937.6 True x
1/2/2004 07:51    12.35 151.00 3430 1,399.0 True x
1/11/2004 11:53    13.65 136.00 4040 1,492.9 True x
1/18/2004 11:51    15.66 340.00 5100 4,687.3 True x
1/23/2004 11:35    12.45 116.00 3480 1,090.5 True x
2/8/2004 12:14    7.35 50.00 1350 185.5 True x
2/15/2004 12:03    6.25 162.00 986 432.9 True x
2/19/2004 11:43    7.85 645.00 1530 2,666.3 True x
2/19/2004 12:09    7.87  656.00 1530 2,713.4 True x
2/24/2004 07:59    10.05 221.00 2390 1,431.7 True x
3/3/2004 08:24    6.86 372.00 1180 1,188.2 True x
3/3/2004 12:57    6.65 10 52.00 1110 156.0 True x
3/3/2004 13:33    6.64  51.00 1110 155.6 True x
3/10/2004 08:32    8.86 118.00 1910 611.5 True x
3/17/2004 11:08    8.95 101.00 1950 532.7 True x
3/24/2004 07:27    8.45 72.00 1750 342.4 True x
4/2/2004 11:29    11.16 12 190.00 2870 1,479.6 True x
4/11/2004 11:50    10.35 13 233.00 2520 1,588.0 True x
4/18/2004 12:51    9.65 18 174.00 2230 1,051.0 True x
4/21/2004 13:14    8.07 16 145.00 1610 634.6 True x
4/21/2004 13:46    8.05  167.00 1600 723.8 True x
4/27/2004 17:57    5.35 17 111.00 717 216.4 True x
5/6/2004 18:21    4.45 21 125.00 480 162.7 True x
5/13/2004 11:01    3.57 23 126.00 282 96.6 True x
5/20/2004 09:39    3.95 23 75.00 363 73.7 True x
5/27/2004 08:59    10.39 21 873.00 2530 5,968.4 True x
6/2/2004 13:40    19.36 22 225.00 7910 4,819.1 True x
6/2/2004 14:16    19.21  197.00 7760 4,140.8 True x
6/3/2004 09:23    11.66 21 334.00 3100 2,801.8 True x
6/10/2004 09:33    3.89 24 152.00 350 144.3 True x
6/17/2004 09:12    7.28 26 753.00 1320 2,686.1 True x
6/26/2004 10:43    4.78 23 82.00 563 124.9 True x
7/2/2004 10:24    6.78 25 141.00 1160 443.0 True x
7/8/2004 11:29    5.61 23 103.00 792 222.4 True x
7/8/2004 11:55    5.61  105.00 792 225.9 True x
7/12/2004 10:26    6.89 27 284.00 1190 915.2 True x
7/19/2004 13:33    6.79 26 143.00 1160 449.5 True x
8/3/2004 10:30    4.58 27 91.00 512 126.8 True x
8/13/2004 13:46    2.84 21 93.00 146 37.0 True x
8/19/2004 12:52    2.69 25 92.00 122 30.4 True x
8/19/2004 13:19    2.69  95.00 122 31.5 True x
8/21/2004 13:47    2.48 24 97.00 91.2 24.1 True x
8/30/2004 17:41    7.28 23 472.00 1320 1,682.5 True x
9/8/2004 07:40    2.67 20 49.00 119 15.9 True x
9/15/2004 10:12    2.54 24 53.00 99.7 14.4 True x
9/22/2004 09:01    2.46 19 72.00 88.3 17.3 True x
9/30/2004 11:08    2.34 18 58.00 72.1 11.5 True x
10/6/2004 10:47    2.41 12 32.00 81.4 7.0 True x
10/6/2004 11:19    2.41  31.00 81.4 6.9 True x
10/14/2004 09:14    2.58 13 51.00 106 14.7 True x
10/21/2004 10:27    4.78 12 215.00 563 327.9 True x
10/29/2004 10:34    4.19 17 96.00 418 109.3 True x
11/10/2004 09:09    6.18 11 123.00 964 321.7 True x
11/10/2004 11:39    6.25 11 118.00 986 315.5 True x
11/10/2004 12:17    6.25  121.00 986 322.6 True x
11/18/2004 12:01    8.09 14 167.00 1610 727.8 True x
11/25/2004 08:36    15.68 756.00 5110 10,439.6 True x
12/1/2004 09:37    15.68 427.00 5110 5,902.1 True x
12/8/2004 09:23    19.07 351.00 7610 7,227.8 True x
12/16/2004 08:43    10.48 112.00 2570 781.9 True x
12/24/2004 08:29    11.09 141.00 2840 1,083.9 True x
12/30/2004 09:22    11.99 119.00 3260 1,052.0 True x
1/6/2005 08:40    26.43 187.00 21600 10,954.5 True x
1/12/2005 09:17    14.10 113.00 4260 1,310.3 True x
1/19/2005 09:52    16.19 94.00 5440 1,383.9 True x
1/26/2005 08:51    15.89 107.00 5250 1,519.2 True x
2/2/2005 10:48    15.58 116.00 5050 1,584.9 True x
2/9/2005 10:56    18.22 248.00 6850 4,592.9 True x
2/9/2005 11:30    18.24  208.00 6860 3,860.1 True x
2/11/2005 09:08    18.49 172.00 7040 3,276.3 True x
2/17/2005 08:57    18.79 187.00 7330 3,713.3 True x
2/23/2005 09:03    15.83 113.00 5210 1,594.1 True x
3/2/2005 09:14    14.89 102.00 4660 1,292.3 True x
3/9/2005 09:08    14.57 136.00 4500 1,661.2 True x
3/16/2005 09:02    14.98 97.00 4700 1,242.7 True x
3/17/2005 12:42    13.73 99.00 4080 1,095.8 True x
3/17/2005 13:08    13.73  98.00 4080 1,083.2 True x
3/24/2005 09:08    15.97 571.00 5300 8,173.1 True x
3/30/2005 09:03    7.80 12 84.00 1510 343.8 True x
4/7/2005 08:51    6.60 14 51.00 1100 151.8 True x
4/14/2005 10:03    6.18 13 123.00 964 320.5 True x
4/20/2005 10:08    4.60 20 123.00 517 172.0 True x
4/20/2005 12:28    4.59 20 124.00 514 172.8 True x
4/20/2005 12:54    4.59  120.00 514 167.4 True x
4/27/2005 09:33    4.40 13 76.00 468 96.7 True x
5/4/2005 09:15    5.24 17 79.00 687 148.0 True x
5/11/2005 09:21    3.57 24 108.00 282 82.9 True x
5/18/2005 08:16    3.46 19 79.00 260 56.1 True x
5/25/2005 09:29    3.17 21 84.00 204 46.3 True x
6/1/2005 08:17    3.08 21 79.00 188 40.5 True x
6/8/2005 09:06    2.89 26 111.00 155 46.9 True x
6/8/2005 10:55    2.91 27 105.00 158 45.0 True x
6/8/2005 11:19    2.91  99.00 158 42.3 True x
6/15/2005 09:24    3.18 24 100.00 206 55.8 True x
6/29/2005 09:04    2.58 29 53.00 106 15.4 True x
7/6/2005 08:50    2.89 26 51.00 155 21.8 True x
7/13/2005 09:21    2.90 25 39.00 156 16.4 True x
7/20/2005 09:25    2.68 29 32.00 121 10.5 True x
7/20/2005 10:20    2.81 29 37.00 141 14.4 True x
7/20/2005 10:46    2.81  44.00 141 17.1 True x
7/27/2005 09:02    3.98 28 43.00 370 43.8 True x
8/3/2005 08:58    2.49 28 34.00 92.6 8.5 True x
8/10/2005 09:13    2.56 28 40.00 103 11.3 True x
8/17/2005 11:53    2.80 26 33.00 140 12.5 True x
8/24/2005 10:24    2.52 25 24.00 96.9 6.3 True x
8/31/2005 14:14    2.47 26 24.00 89.7 5.9 True x
9/7/2005 10:36    2.46 25 25.00 88.3 6.0 True x
9/8/2005 10:40    2.45 25 33.00 86.9 7.8 True x
9/8/2005 11:01    2.45  23.00 86.9 5.6 True x
9/14/2005 11:06    2.48 25 34.00 91.2 8.6 True x
9/21/2005 10:33    2.53 23 30.00 98.3 8.1 True x
9/28/2005 10:33    2.45 22 29.00 86.9 6.9 True x
10/5/2005 10:21    2.47 23 26.00 89.7 6.5 True x
10/12/2005 09:07    2.43 16 20.00 84.2 4.6 True x
10/14/2005 10:48    2.45 16 25.00 86.9 6.0 True x
10/14/2005 11:15    2.45  27.00 86.9 6.4 True x
10/19/2005 10:16    2.36 17 53.00 74.7 10.7 True x
10/26/2005 09:22    2.18 10 25.00 52.2 3.6 True x
11/2/2005 09:55    2.57 11 45.00 104 12.9 True x
11/9/2005 09:58    2.17 16 31.00 51 4.4 True x
11/16/2005 10:22    2.40 32.00 80.1 7.0 True x
11/17/2005 12:22    2.56 33.00 103 9.2 True x
11/17/2005 12:49    2.56  27.00 103 7.6 True x
11/23/2005 10:20    2.32 27.00 69.5 5.2 True x
11/30/2005 09:11    4.67 97.00 535 140.2 True x
12/13/2005 13:40    2.27 10.00 63.1 1.8 True x
12/21/2005 08:20    7.89 78.00 1540 326.7 True x
12/29/2005 11:26    8.42 129.00 1740 609.9 True x
1/4/2006 08:43    8.14 52.00 1630 231.7 True x
1/10/2006 12:38    7.41 30.00 1370 114.1 True x
1/10/2006 13:05    7.40  33.00 1370 122.2 True x
1/12/2006 13:07    6.51 21.00 1070 62.2 True x
1/19/2006 09:06    5.17 27.00 667 48.6 True x
1/25/2006 09:11    4.64 15.00 527 21.4 True x
2/1/2006 09:13    5.75 71.00 833 161.0 True x
2/9/2006 09:32    6.65 25.00 1110 75.1 True x
2/15/2006 10:50    4.21 17.00 422 19.5 True x
2/15/2006 11:20    4.21  16.00 422 18.9 True x
2/16/2006 09:13    3.75 67.00 320 58.4 True x
2/22/2006 09:19    5.24 35.00 687 66.5 True x
3/1/2006 09:12    3.80 68.00 330 60.9 True x
3/10/2006 08:55    13.53 1,332.00 3980 14,316.2 True x
3/22/2006 07:44    10.69 160.00 2660 1,156.0 True x
3/29/2006 08:38    11.95 149.00 3240 1,310.2 True x
4/5/2006 08:50    11.97 10 157.00 3250 1,382.3 True x
4/5/2006 13:02    11.66 11 149.00 3100 1,254.8 True x
4/5/2006 13:37    11.62  150.00 3090 1,256.8 True x
4/12/2006 08:40    14.05 13 1,235.00 4240 14,141.3 True x
4/19/2006 08:36    12.80 16 174.00 3640 1,718.3 True x
4/27/2006 09:28    9.13 16 123.00 2020 671.7 True x
5/3/2006 09:03    14.74 17 1,076.00 4580 13,306.7 True x
5/10/2006 08:25    5.49 18 75.00 757 154.7 True x
5/17/2006 08:54    7.65 15 298.00 1530 1,234.0 True x
5/18/2006 12:27    6.01 16 115.00 911 283.5 True x
5/18/2006 12:51    6.01  120.00 911 295.9 True x
5/24/2006 08:44    5.39 19 61.00 729 120.4 True x
5/31/2006 08:53    4.33 25 85.00 451 103.7 True x
6/7/2006 08:38    6.63 22 155.00 1110 465.6 True x
6/14/2006 08:26    6.15 21 101.00 954 262.7 True x
6/19/2006 10:47    5.76 25 95.00 836 215.5 True x
6/19/2006 11:10    5.78  93.00 842 212.4 True x
6/27/2006 08:12    5.71 22 173.00 821 385.5 True x
7/6/2006 08:24    2.98 24 84.00 170 38.6 True x
7/12/2006 09:18    2.82 30 63.00 143 24.5 True x
7/21/2006 11:12    3.52 28 75.00 272 55.6 True x
8/8/2006 08:59    2.28 28 47.00 64.4 8.2 True x
8/16/2006 10:42    2.52 25 44.00 96.9 11.6 True x
8/23/2006 08:38    2.40 24 50.00 80.1 11.0 True x
8/30/2006 09:16    2.74 23 49.00 130 17.3 True x
9/6/2006 09:03    2.85 20 56.00 148 22.7 True x
9/14/2006 09:18    2.07 20 38.00 39.9 4.1 True x
9/20/2006 08:48    2.16 15 33.00 49.9 4.4 True x
9/29/2006 09:11    1.97 17 32.00 29.7 2.6 True x
10/4/2006 08:47    1.97 22 36.00 29.7 2.9 True x
10/12/2006 07:41    1.88 12 32.00 21.5 1.9 True x
10/18/2006 08:49    2.10 13 51.00 43.1 6.0 True x
10/18/2006 10:57    2.11 12 37.00 44.2 4.5 True x
10/18/2006 11:17    2.11  38.00 44.2 4.6 True x
10/25/2006 08:31    1.83 14.00 17.3 0.7 True x
11/3/2006 08:44    2.35 15.00 73.4 3.1 True x
11/9/2006 08:36    2.16 11 36.00 49.9 5.0 True x
11/17/2006 08:16    2.63 13.00 113 4.2 True x
11/21/2006 08:08    2.52 46.00 96.9 12.2 True x
11/29/2006 08:51    1.93 13 37.00 26 2.6 True x
12/5/2006 12:41    3.91 47.00 354 45.3 True x
12/5/2006 13:06    3.91  49.00 354 47.3 True x
12/6/2006 08:40    4.07 33.00 390 35.1 True x
12/13/2006 08:51    5.67 206.00 809 451.9 True x
12/22/2006 07:55    12.66 299.00 3570 2,882.1 True x
12/29/2006 07:24    9.87 109.00 2320 684.3 True x
1/8/2007 08:20    11.29 104.00 2930 827.7 True x
1/9/2007 13:00    11.25 108.00 2920 852.5 True x
1/9/2007 13:30    11.24  102.00 2910 808.1 True x
1/16/2007 09:45    22.12 205.00 11400 6,329.5 True x
1/23/2007 08:14    12.38 138.00 3440 1,285.4 True x
1/31/2007 09:05    11.41 66.00 2990 540.3 True x
2/7/2007 08:55    10.87 47.00 2740 350.8 True x
2/20/2007 07:51    9.13 46.00 2020 255.5 True x
2/22/2007 10:56    16.33 438.00 5540 6,558.0 True x
2/22/2007 11:28    16.34  452.00 5540 6,761.8 True x
2/28/2007 08:42    16.51 258.00 5660 3,944.9 True x
3/8/2007 08:06    11.63 124.00 3090 1,036.6 True x
3/14/2007 08:27    11.39 94.00 2980 756.6 True x
3/21/2007 09:06    11.67 91.00 3110 771.6 True x
3/27/2007 08:07    10.77 13 127.00 2700 930.0 True x
4/5/2007 11:21    7.12 46.00 1270 158.2 True x
4/5/2007 13:04    7.02 10 106.00 1240 357.1 True x
4/5/2007 13:30    6.99  112.00 1230 375.0 True x
4/13/2007 11:21    7.17 10 41.00 1290 144.5 True x
4/20/2007 09:35    6.40 14 45.00 1030 125.3 True x
4/27/2007 08:08    6.41 16 67.00 1040 189.1 True x
5/4/2007 08:18    6.12 17 82.00 945 210.5 True x
5/12/2007 09:47    5.11 19 171.00 651 301.6 True x
5/14/2007 10:37    3.82 21 153.00 335 138.6 True x
5/14/2007 11:03    3.82  175.00 335 158.6 True x
5/19/2007 12:51    3.29 21 101.00 227 62.4 True x
5/25/2007 10:44    3.17 23 89.00 204 49.3 True x
6/2/2007 08:27    3.19 24 124.00 208 70.2 True x
6/8/2007 09:02    2.77 25 110.00 135 40.5 True x
6/18/2007 09:45    2.61 27 102.00 110 30.3 True x
6/20/2007 10:32    2.57 25 137.00 104 38.5 True x
6/20/2007 10:53    2.57  137.00 104 38.5 True x
6/27/2007 09:43    9.70 24 982.00 2250 5,968.0 True x
7/3/2007 08:14    3.50 23 64.00 268 46.6 True x
7/11/2007 08:59    3.30 25 77.00 229 48.0 True x
7/18/2007 08:31    2.56 25 55.00 103 15.5 True x
7/25/2007 08:43    2.62 25 79.00 112 24.1 True x
7/25/2007 10:53    2.63 25 74.00 113 22.8 True x
7/25/2007 11:18    2.63  58.00 113 18.0 True x
8/1/2007 08:47    2.41 26 70.00 81.4 15.4 True x
8/8/2007 08:48    2.52 29 66.00 97 17.5 True x
8/15/2007 08:49    2.29 28 61.00 65.6 11.0 True x
8/30/2007 07:22    2.18 22 47.00 52.2 6.7 True x
9/7/2007 08:31    2.23 24 46.00 58.2 7.3 True x
9/14/2007 08:24    2.19 20 39.00 53.4 5.6 True x
9/19/2007 10:43    2.20 23 34.00 54.6 5.1 True x
9/19/2007 11:06    2.20  36.00 54.6 5.4 True x
9/22/2007 11:34    2.15 26 32.00 48.7 4.3 True x
9/28/2007 10:07    2.13 24 30.00 46.5 3.8 True x
10/4/2007 08:21    2.18 21 27.00 52 3.9 True x
10/19/2007 08:07    2.22 18 40.00 57 6.2 True x
10/27/2007 08:09    2.27 12 30.00 63 5.2 True x
11/2/2007 09:41    2.24 12.00 59 2.0 True x
11/6/2007 12:43    2.14 25.00 48 3.4 True x
11/6/2007 13:03    2.14  11.00 48 1.5 True x
11/9/2007 08:19    2.22 16.00 57 2.6 True x
11/16/2007 08:51    2.36 9.00 75 1.9 True x
11/23/2007 08:51    2.47 11.00 90 2.8 True x
11/30/2007 08:46    2.55 8.00 101 2.3 True x
12/7/2007 08:24    2.37 5.00 76 1.2 True x
12/14/2007 08:21    3.59 30.00 286 23.5 True x
12/21/2007 08:40    5.56 51.00 777 107.7 True x
12/28/2007 08:19    6.17 38.00 961 99.5 True x
1/9/2008 10:53    12.71 606.00 3600 5,894.5 True x
1/9/2008 11:26    12.76  595.00 3620 5,823.4 True x
1/12/2008 09:12    9.88 112.00 2320 707.7 True x
1/18/2008 08:57    9.33 60.00 2100 344.9 True x
1/26/2008 08:32    9.81 48.00 2290 299.5 True x
1/31/2008 08:32    9.03 54.00 1980 290.9 True x
2/8/2008 09:25    23.14 265.00 13400 9,590.2 True x
2/14/2008 11:09    12.11 127.00 3310 1,138.5 True x
2/14/2008 11:38    12.13  124.00 3320 1,119.6 True x
2/15/2008 08:19    12.27 134.00 3390 1,235.1 True x
2/21/2008 08:42    14.16 121.00 4290 1,402.3 True x
2/29/2008 08:41    13.43 109.00 3940 1,168.0 True x
3/8/2008 09:40    17.14 176.00 6080 2,900.7 True x
3/14/2008 08:32    13.82 120.00 4130 1,339.3 True x
3/21/2008 08:39    25.07 170.00 17800 8,194.2 True x
3/27/2008 08:04    15.18 130.00 4820 1,699.3 True x
4/4/2008 08:23    19.74 122.00 8310 2,759.2 True x
4/11/2008 08:34    20.32 13 378.00 8940 9,136.2 True x
4/18/2008 08:14    13.90 13 93.00 4170 1,053.1 True x
4/22/2008 11:44    13.11 14 101.00 3780 1,035.6 True x
4/22/2008 12:11    13.11  104.00 3780 1,063.0 True x
4/25/2008 08:33    12.76 16 95.00 3620 931.1 True x
5/9/2008 08:19    13.63 15 461.00 4030 5,016.6 True x
5/15/2008 08:53    8.27 15 79.00 1680 359.1 True x
5/23/2008 08:34    6.21 16 46.00 973 122.0 True x
5/30/2008 08:09    6.26 19 47.00 989 127.0 True x
6/5/2008 07:51    7.74 23 141.00 1490 569.6 True x
6/11/2008 11:44    13.13 25 200.00 3790 2,048.0 True x
6/11/2008 12:16    13.03  199.00 3750 2,017.0 True x
6/12/2008 08:17    11.10 23 207.00 2850 1,593.3 True x
6/28/2008 09:11    15.17 24 1,147.00 4810 14,902.9 True x
7/4/2008 09:47    10.70 23 145.00 2670 1,050.6 True x
7/11/2008 07:51    11.59 25 193.00 3070 1,601.9 True x
7/18/2008 09:39    10.23 26 129.00 2470 861.1 True x
7/25/2008 08:54    9.74 24 128.00 2270 786.5 True x
8/2/2008 08:22    10.29 26 129.00 2490 873.9 True x
8/8/2008 08:41    10.40 24 146.00 2540 1,007.9 True x
8/15/2008 08:14    9.40 24 141.00 2130 815.0 True x
8/22/2008 07:42    8.96 24 163.00 1950 863.3 True x
9/3/2008 10:33    8.78 27 182.00 1880 924.6 True x
9/3/2008 11:00    8.78  181.00 1880 923.4 True x
9/5/2008 08:44    10.61 23 300.00 2630 2,131.2 True x
9/13/2008 10:03    11.03 23 409.00 2820 3,114.1 True x
9/19/2008 08:11    8.20 21 246.00 1660 1,105.9 True x
9/26/2008 08:47    9.06 21 134.00 1990 720.8 True x
10/2/2008 10:16    8.87 19 108.00 1910 559.5 True x
10/8/2008 08:54    8.94 19 118.00 1940 619.3 True x
10/15/2008 08:37    8.55 20 94.00 1790 456.0 True x
10/22/2008 07:34    8.47 15 89.00 1760 425.2 True x
10/22/2008 10:46    8.46 16 89.00 1750 423.1 True x
10/22/2008 11:10    8.45  92.00 1750 437.5 True x
11/6/2008 08:19    7.82 14 54.00 1520 223.8 True x
11/12/2008 08:38    6.99 10 29.00 1230 99.2 True x
11/19/2008 08:46    7.37 32.00 1350 117.3 True x
11/20/2008 10:26    7.01 36.00 1230 121.8 True x
11/20/2008 10:49    7.00  32.00 1230 108.1 True x
11/26/2008 09:04    5.56 14.00 777 30.1 True x
12/1/2008 08:44    5.06 34.00 637 59.6 True x
12/3/2008 08:36    4.95 12.00 608 20.3 True x
12/17/2008 09:02    5.90 28.00 878 68.3 True x
12/31/2008 08:43    21.29 272.00 10000 7,366.4 True x
1/7/2009 09:37    13.59 125.00 4010 1,363.1 True x
1/14/2009 09:43    12.66 81.00 3570 789.6 True x
1/21/2009 09:07    13.23 87.00 3840 905.7 True x
1/22/2009 13:23    12.72 97.00 3600 949.7 True x
1/22/2009 13:50    12.71  96.00 3600 936.6 True x
2/4/2009 08:52    7.90 37.00 1540 156.0 True x
2/11/2009 08:33    16.21 10 2,622.00 5460 38,666.8 True x
2/18/2009 08:44    11.57 116.00 3060 959.6 True x
2/18/2009 10:36    11.51 105.00 3030 862.5 True x
2/18/2009 11:00    11.51  112.00 3030 920.9 True x
2/25/2009 09:26    10.12 69.00 2420 452.9 True x
3/4/2009 09:32    9.93 61.00 2340 387.9 True x
3/11/2009 09:17    8.91 76.00 1930 401.2 True x
3/18/2009 08:32    8.06 10 62.00 1600 271.1 True x
3/25/2009 09:03    8.44 11 67.00 1750 320.0 True x
4/2/2009 08:44    11.22 10 297.00 2900 2,326.6 True x
4/7/2009 10:41    13.25 219.00 3850 2,283.4 True x
4/7/2009 11:08    13.22  224.00 3840 2,331.3 True x
4/11/2009 09:14    20.22 413.00 8830 9,863.0 True x
4/17/2009 09:00    11.22 13 139.00 2900 1,093.8 True x
4/22/2009 08:42    13.04 12 120.00 3750 1,220.8 True x
4/28/2009 08:21    12.44 16 385.00 3470 3,613.4 True x
5/7/2009 09:36    13.34 17 190.00 3890 1,999.4 True x
5/14/2009 08:04    13.35 18 216.00 3900 2,283.7 True x
5/14/2009 10:39    14.57 19 317.00 4500 3,858.8 True x
5/14/2009 11:08    14.77  341.00 4600 4,237.1 True x
5/20/2009 08:47    12.16 18 151.00 3340 1,366.4 True x
5/28/2009 08:49    14.06 19 188.00 4240 2,154.6 True x
6/4/2009 08:36    10.24 18 125.00 2470 839.7 True x
6/10/2009 10:02    9.76 21 145.00 2270 892.6 True x
6/17/2009 08:31    12.95 22 278.00 3710 2,789.6 True x
6/18/2009 11:06    10.98 23 127.00 2790 957.7 True x
6/18/2009 11:33    10.96  124.00 2780 936.3 True x
6/24/2009 08:27    12.05 25 168.00 3290 1,497.0 True x
7/1/2009 08:26    10.29 22 110.00 2490 743.0 True x
7/9/2009 07:21    10.07 23 132.00 2400 860.9 True x
7/16/2009 07:49    15.74 22 656.00 5150 9,129.6 True x
7/29/2009 10:14    9.33 25 173.00 2100 982.9 True x
8/5/2009 09:06    9.68 24 156.00 2240 946.4 True x
8/12/2009 08:41    8.38 25 132.00 1720 613.2 True x
8/19/2009 10:23    8.34 26 166.00 1710 767.5 True x
8/19/2009 10:46    8.34  177.00 1710 821.7 True x
8/20/2009 08:14    12.21 23 926.00 3360 8,405.2 True x
8/27/2009 08:14    8.30 24 157.00 1690 719.5 True x
9/3/2009 09:22    8.11 22 149.00 1620 655.4 True x
9/9/2009 08:20    6.57 23 126.00 1080 369.4 True x
9/16/2009 08:29    5.14 22 81.00 659 145.8 True x
9/23/2009 08:52    2.87 21 117.00 151 47.9 True x
9/24/2009 10:45    2.80 22 124.00 140 46.9 True x
9/24/2009 11:11    2.80  124.00 140 47.2 True x
9/30/2009 10:16    2.48 15 118.00 91.2 29.1 True x
10/7/2009 08:37    2.52 13 123.00 97 32.4 False x
10/16/2009 08:11    6.76 10 95.00 1150 296.8 False x
10/22/2009 10:48    5.27 14 48.00 695 90.4 False x
11/4/2009 09:01    9.78 11 222.00 2280 1,371.0 False x
11/10/2009 10:34    7.28 14 58.00 1320 208.2 False x
11/10/2009 10:58    7.28  55.00 1320 199.2 False x
11/11/2009 09:36    7.42 12 73.00 1370 272.9 False x
11/18/2009 08:54    14.47 480.00 4450 5,771.5 False x
11/25/2009 08:51    11.39 10 253.00 2980 2,039.1 False x
12/2/2009 08:53    9.19 58.00 2040 320.9 False x
12/15/2009 10:48    17.87 232.00 6590 4,135.0 False x
12/15/2009 11:17    17.87  188.00 6590 3,360.3 False x
12/17/2009 11:10    12.76 82.00 3620 805.6 False x
12/26/2009 08:59    25.60 314.00 19200 16,294.3 False x
12/31/2009 09:14    16.90 102.00 5920 1,645.3 False x
1/6/2010 08:55    15.21 56.00 4830 731.7 False x
1/14/2010 08:10    14.63 94.00 4530 1,150.4 False x
1/20/2010 09:18    15.43 84.00 4960 1,132.2 False x
1/27/2010 09:18    18.90 106.00 7440 2,130.9 False x
2/3/2010 08:36    15.03 67.00 4730 861.1 False x
2/11/2010 08:41    14.90 63.00 4660 803.5 False x
2/17/2010 08:54    13.24 58.00 3850 604.7 False x
3/4/2010 08:44    11.61 53.00 3080 442.0 False x
3/10/2010 10:38    8.78 38.00 1880 194.7 False x
3/10/2010 10:59    8.78 12 40.00 1880 203.7 False x
3/11/2010 09:05    9.95 77.00 2350 490.7 False x
3/17/2010 09:13    13.94 94.00 4190 1,073.9 False x
3/24/2010 08:58    8.21 65.00 1660 294.2 False x
4/2/2010 09:14    11.59 12 115.00 3070 954.5 False x
4/8/2010 08:40    10.38 14 96.00 2530 661.5 False x
4/16/2010 08:08    5.74 18 131.00 830 295.2 False x
4/21/2010 10:50    4.36 17 106.00 458 131.4 False x
4/21/2010 11:13    4.36  97.00 458 120.5 False x
4/22/2010 08:43    4.35 17 123.00 456 152.3 False x
4/29/2010 10:04    8.54 15 187.00 1790 908.4 False x
5/6/2010 08:47    7.56 18 89.00 1420 343.0 False x
5/13/2010 10:38    7.87 18 637.00 1530 2,634.3 False x
5/21/2010 09:19    5.58 18 78.00 783 166.4 False x
5/28/2010 09:27    4.79 22 109.00 566 168.1 False x
6/5/2010 10:43    6.80 24 162.00 1160 509.7 False x
6/11/2010 10:12    5.91 24 102.00 881 244.1 False x
6/16/2010 11:04    18.04 25 542.00 6720 9,851.9 False x
6/16/2010 11:31    18.06  543.00 6730 9,875.4 False x
6/25/2010 08:43    15.82 25 475.00 5200 6,677.6 False x
7/2/2010 08:14    10.02 23 166.00 2380 1,071.4 False x
7/8/2010 08:03    8.98 26 130.00 1960 692.9 False x
7/16/2010 08:19    9.05 27 151.00 1990 816.5 False x
7/24/2010 10:14    8.06 29 184.00 1600 798.0 False x
8/11/2010 09:43    8.66 28 155.00 1830 769.1 False x
8/21/2010 11:58    6.03 25 120.00 917 299.0 False x
8/26/2010 11:11    6.74 25 133.00 1140 411.0 False x
8/26/2010 12:09    6.74 25 131.00 1140 405.9 False x
8/31/2010 17:27    3.99 19 79.00 372 79.5 False x
9/8/2010 10:39    7.62 22 136.00 1440 529.0 False x
9/16/2010 11:58    5.14 22 65.00 659 116.4 False x
9/23/2010 16:37    3.46 26 43.00 260 30.7 False x
9/29/2010 17:32    4.29 20 51.00 441 61.1 False x
10/6/2010 17:45    3.11 17 36.00 193 19.2 False x
10/14/2010 17:34    2.48 17 48.00 91 11.9 False x
10/20/2010 17:02    2.49 15 24.00 93 6.1 False x
10/29/2010 15:58    2.34 12 27.00 72 5.3 False x
11/6/2010 13:32    2.28 54.00 64 9.4 False x
11/12/2010 14:34    2.32 14 78.00 69 14.6 False x
11/18/2010 13:27    2.34 10 178.00 72 34.7 False x
11/27/2010 13:32    12.02 181.00 3270 1,606.2 False x
12/5/2010 13:22    9.16 98.00 2030 541.9 False x
12/10/2010 13:19    8.90 70.00 1930 365.8 False x
12/16/2010 13:44    9.54 73.00 2190 433.5 False x
12/22/2010 13:20    9.05 59.00 1990 322.1 False x
12/28/2010 13:12    8.80 52.00 1890 269.9 False x
1/7/2011 12:16    9.47 60.00 2160 354.5 False x
1/15/2011 13:37    7.14 33.00 1280 116.4 False x
1/26/2011 13:51    5.25 36.00 689 68.4 False x
2/13/2011 13:36    6.11 46.00 942 118.2 False x
2/18/2011 13:10    16.95 410.00 5950 6,596.1 False x
2/24/2011 13:20    18.09 206.00 6750 3,757.4 False x
3/3/2011 13:24    20.02 133.00 8610 3,100.1 False x
3/11/2011 15:12    18.98 126.00 7520 2,560.0 False x
3/17/2011 13:23    16.02 10 335.00 5330 4,821.8 False x
3/24/2011 13:22    12.18 10 154.00 3350 1,400.9 False x
3/30/2011 14:12    6.67 46.00 1120 140.8 False x
4/6/2011 13:21    5.88 13 96.00 872 227.0 False x
4/14/2011 17:41    7.62 16 104.00 1440 404.8 False x
4/21/2011 13:49    21.38 13 271.00 10200 7,486.8 False x
4/28/2011 15:02    27.31 15 169.00 24400 11,160.2 False x
5/6/2011 13:15    9.69 16 72.00 2250 438.8 False x
5/13/2011 17:51    10.94 20 143.00 2770 1,070.3 False x
5/20/2011 13:44    10.88 20 93.00 2750 695.7 False x
5/27/2011 13:24    16.38 17 607.00 5570 9,143.5 False x
6/3/2011 13:21    10.21 23 124.00 2460 824.5 False x
6/10/2011 14:17    9.76 24 90.00 2270 555.6 False x
6/16/2011 14:04    10.33 23 104.00 2510 706.8 False x
6/24/2011 13:17    10.74 23 146.00 2690 1,067.0 False x
7/9/2011 15:06    15.52 27 338.00 5010 4,575.0 False x
7/16/2011 17:57    7.65 27 88.00 1450 345.2 False x
7/21/2011 14:17    7.03 27 37.00 1240 126.7 False x
8/5/2011 16:04    6.85 27 90.00 1180 289.2 False x
8/11/2011 15:36    6.77 26 98.00 1150 305.8 False x
8/18/2011 10:54    6.63 26 117.00 1110 350.9 False x
8/25/2011 16:50    6.38 27 95.00 1030 266.1 False x
8/30/2011 17:43    5.86 26 117.00 866 274.8 False x
9/15/2011 14:32    3.43 18 37.00 254 26.0 False x
9/25/2011 12:54    3.09 17 70.00 189 36.0 False x
9/30/2011 17:34    3.02 18 62.00 177 29.9 False x
10/6/2011 17:31    2.97 20 58.00 168 26.5 False x
10/14/2011 13:23    2.84 17 31.00 146 12.2 False x
10/30/2011 13:17    2.74 11 36.00 130 12.7 False x
11/4/2011 12:57    2.83  47.00 145 18.7 False x
11/11/2011 13:46    3.72 10 27.00 313 22.9 False x
11/18/2011 13:14    2.93 11.00 161 4.8 False x
11/24/2011 13:29    4.05 10 42.00 386 43.9 False x
12/2/2011 13:17    5.98 10 110.00 902 269.8 False x
12/10/2011 09:11    7.47 56.00 1390 213.7 False x
12/16/2011 13:20    13.91 417.00 4170 4,701.8 False x
12/24/2011 12:48    8.61 62.00 1810 303.2 False x
12/31/2011 12:32    9.44 87.00 2150 507.0 False x
1/6/2012 13:19    8.65 39.00 1830 197.1 False x
1/13/2012 14:22    4.88 55.00 589 88.5 False x
1/19/2012 14:28    7.57 314.00 1420 1,204.8 False x
1/27/2012 13:29    17.83 325.00 6570 5,778.7 False x
2/2/2012 14:10    10.51 98.00 2370 627.8 False x
2/10/2012 13:16    7.70 36.00 1300 126.4 False x
2/16/2012 14:14    6.97 42.00 1070 122.7 False x
2/23/2012 13:29    6.22 91.00 852 210.9 False x
3/1/2012 14:17    5.58 10 40.00 679 74.0 False x
3/15/2012 15:40    5.17 18 72.00 576 113.1 False x
3/16/2012 13:24    5.98 10 56.00 785 120.4 False x
3/23/2012 17:35    5.22 18 92.00 588 146.1 False x
3/30/2012 13:28    4.56 20 96.00 434 113.0 False x
4/2/2012 10:29    4.31 22 40.00 380 41.3 False x
4/2/2012 11:00    4.31 22 49.00 380 51.1 False x
4/5/2012 14:13    4.22 18 99.00 361 97.0 False x
4/12/2012 11:58    3.56 14 91.00 234 57.5 False x
4/20/2012 12:54    4.83 14 50.00 495 67.4 False x
4/26/2012 14:40    4.14 19 123.00 345 115.2 False x
5/2/2012 12:55    13.64 20 1,041.00 3900 10,962.2 False x
5/2/2012 13:25    13.61 20 1,118.00 3880 11,718.5 False x
5/3/2012 15:23    11.09 22 591.00 2630 4,202.1 False x
5/10/2012 12:46    6.14 21 134.00 830 300.6 False x
5/17/2012 08:57    3.98 20 101.00 313 85.9 False x
5/25/2012 13:17    3.29 25 91.00 189 46.5 False x
6/1/2012 13:19    3.02 19 90.00 147 36.1 False x
6/8/2012 13:29    2.63 25 119.00 94 30.4 False x
6/16/2012 15:43    2.67 29 93.00 99 25.0 False x
6/21/2012 15:32    2.39 28 104.00 66 18.7 False x
6/27/2012 16:46    2.27 28 118.00 53 16.9 False x
7/12/2012 09:23    2.18 27 65.00 44 7.7 False x
7/20/2012 13:33    2.12 29 35.00 39 3.8 False x
7/26/2012 12:16    2.00 29 64.00 28 4.8 False x
8/2/2012 09:49    1.97 27 43.00 26 3.0 False x
8/9/2012 14:14    2.17 28 32.00 43 3.7 False x
8/17/2012 13:21    5.79 23 409.00 734 810.8 False x
8/24/2012 14:22    2.11 27 30.00 38 3.1 False x
8/30/2012 13:29    2.72 26 72.00 105 20.4 False x
9/6/2012 14:43    7.92 24 338.00 1380 1,262.4 False x
9/13/2012 14:28    3.08 24 32.00 156 13.5 False x
9/20/2012 12:16    2.39 19 24.00 66 4.3 False x
9/29/2012 17:34    2.80 20 46.00 116 14.4 False x
10/11/2012 15:34    2.77 13 73.00 112 22.3 False x
10/18/2012 13:18    7.02 15 968.00 1090 2,849.7 False x
10/26/2012 14:18    5.23 15 71.00 590 114.6 False x
11/1/2012 16:19    3.19 15 19.00 173 9.2 False x
11/8/2012 13:17    3.53 14 115.00 229 71.1 False x
11/15/2012 13:58    4.09 21.00 335 19.6 False x
11/23/2012 12:41    2.62 97.00 93 24.4 False x
11/29/2012 14:58    2.51 112.00 79 24.1 False x
12/7/2012 14:19    2.62 116.00 93 29.1 False x
12/14/2012 14:24    3.21 11.00 176 5.7 False x
12/21/2012 14:23    13.82 607.00 3990 6,546.2 False x
1/5/2013 13:22    7.54 55.00 1250 186.4 False x
1/11/2013 14:17    7.53 89.00 1250 301.7 False x
1/17/2013 14:29    7.63 129.00 1280 449.2 False x
1/23/2013 13:34    4.31 100.00 380 102.7 False x
1/31/2013 14:11    18.13 579.00 6770 10,601.8 False x
2/7/2013 14:13    8.06 74.00 1420 286.0 False x
2/14/2013 11:10    10.01 143.00 2160 835.1 False x
2/28/2013 13:19    19.19 260.00 7740 5,451.2 False x
3/7/2013 11:05    11.56 87.00 2840 667.8 False x
3/15/2013 12:20    9.31 52.00 1880 264.0 False x
3/21/2013 12:56    6.99 47.00 1080 139.0 False x
3/29/2013 14:14    12.93 439.00 3520 4,179.7 False x
4/5/2013 11:55    7.46 10 100.00 1230 333.3 False x
4/12/2013 14:22    15.11 11 493.00 4740 6,314.9 False x
4/19/2013 14:28    27.53 12 618.00 25100 41,945.3 False x
4/25/2013 14:47    20.13 13 64.00 8730 1,512.6 False x
5/3/2013 16:01    19.06 17 183.00 7600 3,774.8 False x
5/9/2013 08:30    18.06  81.00 6720 1,476.3 False x
5/9/2013 08:57    18.03  724.00 6700 13,112.8 False x
5/9/2013 13:18    18.42 19 84.00 6990 1,591.5 False x
5/17/2013 14:16    13.41 19 141.00 3770 1,437.3 False x
5/23/2013 14:04    10.19 19 96.00 2240 584.8 False x
6/2/2013 13:41    17.24 21 775.00 6130 12,841.9 False x
6/6/2013 16:17    10.66 23 141.00 2440 933.5 False x
6/13/2013 16:09    9.34 25 117.00 1890 598.4 False x
6/20/2013 12:33    8.47 25 123.00 1570 522.0 False x
7/6/2013 12:42    10.72 25 147.00 2460 979.8 False x
7/12/2013 12:53    10.31 26 135.00 2290 836.2 False x
7/19/2013 13:19    9.79 29 135.00 2070 758.5 False x
7/25/2013 14:47    9.64 26 131.00 2010 713.4 False x
8/2/2013 15:04    9.31 25 103.00 1880 527.4 False x
8/8/2013 10:46    8.94  131.00 1740 619.0 False x
8/8/2013 11:26    8.93  127.00 1740 600.9 False x
9/3/2013 14:16    5.40 26 103.00 633 177.2 False x
9/12/2013 12:09    3.14 26 121.00 165 54.0 False x
9/21/2013 13:56    3.04 20 103.00 150 41.8 False x
9/28/2013 13:00    2.77 21 71.00 112 21.7 False x
10/4/2013 14:20    2.68 25 39.00 100 10.7 False x
10/11/2013 13:14    2.45 20 89.00 73 17.6 False x
10/19/2013 13:30    2.09 14 79.00 36 7.7 False x
10/24/2013 15:55    2.27 79.00 53 11.4 False x
11/1/2013 14:24    2.72 14 32.00 105 9.1 False x
11/8/2013 14:17    2.57 10 44.00 87 10.4 False x
11/14/2013 14:43    2.69 74.00 101 20.3 False x
11/25/2013 12:47    2.72 64.00 105 18.1 False x
12/2/2013 13:26    2.57 78.00 87 18.4 False x
12/9/2013 13:41    2.32 102.00 58 16.1 False x
12/19/2013 14:04    2.54 94.00 83 21.2 False x
12/26/2013 14:46    3.16 24.00 168 11.2 False x
1/16/2014 14:10    9.50 177.00 1960 939.3 False x
1/30/2014 14:54    7.29 50.00 1170 159.9 False x
2/13/2014 14:47    5.11 15.00 561 22.9 False x
2/20/2014 14:08    14.33 535.00 4280 6,188.7 False x
2/27/2014 13:28    11.64 250.00 2880 1,951.6 False x
3/6/2014 13:10    10.88 217.00 2530 1,488.6 False x
3/14/2014 11:00    10.70 359.00 2460 2,386.7 False x
3/20/2014 15:11    9.06 108.00 1780 521.9 False x
3/27/2014 14:36    6.74 44.00 1000 119.6 False x
4/4/2014 10:43    18.87  1,227.00 7410 24,564.1 False x
4/4/2014 11:20    18.94 11 1,146.00 7480 23,163.4 False x
4/7/2014 11:48    11.46  271.00 2790 2,041.9 False x
4/7/2014 12:42    11.30  246.00 2720 1,808.6 False x
4/11/2014 09:57    8.08 14 124.00 1430 480.6 False x
4/11/2014 10:39    8.07 14 112.00 1430 433.9 False x
4/11/2014 15:43    7.97 14 84.00 1390 317.6 False x
4/18/2014 12:25    6.70 13 97.00 991 260.5 False x
4/23/2014 14:29    5.17 17 50.00 576 78.8 False x
5/1/2014 12:45    13.29 13 504.00 3710 5,053.2 False x
5/9/2014 14:14    5.86 22 70.00 753 143.9 False x
5/15/2014 15:40    9.46 15 810.00 1940 4,244.6 False x
5/22/2014 13:20    5.22 22 70.00 588 111.9 False x
5/30/2014 14:16    6.20 25 136.00 846 312.0 False x
6/13/2014 11:15    9.78 22 314.00 2070 1,758.5 False x
6/20/2014 13:17    6.96 27 151.00 1070 438.5 False x
6/28/2014 12:57    8.28 26 594.00 1500 2,409.7 False x
7/3/2014 12:58    6.86 24 266.00 1040 747.0 False x
7/10/2014 12:52    6.47 25 133.00 923 332.7 False x
7/18/2014 17:46    7.04 24 149.00 1090 440.9 False x
7/26/2014 13:44    7.38 25 196.00 1200 638.2 False x
8/1/2014 13:47    6.96 26 166.00 1070 480.1 False x
8/6/2014 11:55    6.82 28 227.00 1030 633.8 False x
8/6/2014 12:36    6.82 28 193.00 1030 537.7 False x
8/9/2014 13:20    6.89 24 214.00 1050 607.8 False x
8/15/2014 13:51    4.03 26 150.00 323 131.0 False x
8/21/2014 12:17    3.99 26 104.00 315 89.3 False x
8/29/2014 12:13    2.62 28 40.00 93 10.1 False x
9/5/2014 10:50    3.23 26 105.00 179 51.2 False x
9/12/2014 12:49    6.88 19 362.00 1050 1,027.0 False x
9/19/2014 11:15    3.69 18 72.00 258 50.4 False x
9/26/2014 13:24    3.61 21 32.00 243 21.6 False x
10/1/2014 10:58    2.96 22 30.00 138 11.4 False x
10/1/2014 11:33    2.98  31.00 141 11.9 False x
10/8/2014 17:13    6.51 17 136.00 935 345.4 False x
10/19/2014 12:00    7.54 15 173.00 1250 586.6 False x
10/25/2014 13:04    5.69 16 111.00 708 213.2 False x
11/5/2014 13:44    4.61 16 17.00 445 21.1 False x
11/14/2014 13:50    3.71 49.00 262 35.2 False x
11/22/2014 13:55    3.38 41.00 204 23.0 False x
11/28/2014 13:55    7.26 90.00 1160 282.3 False x
12/8/2014 13:08    10.54 136.00 2390 881.2 False x
12/12/2014 13:54    7.63 47.00 1280 165.1 False x
1/12/2015 13:47    13.24 150.00 3680 1,490.9 False x
1/22/2015 11:26    9.24 83.00 1850 418.2 False x
1/22/2015 12:11    9.23 72.00 1850 363.6 False x
1/22/2015 14:28    9.22 104.00 1850 521.8 False x
2/2/2015 13:19    6.75 156.00 1010 427.0 False x
2/10/2015 14:49    6.43 175.00 912 432.9 False x
3/8/2015 12:56    5.59 120.00 681 221.7 False x
3/19/2015 12:42    8.63 162.00 1630 717.0 False x
3/20/2015 09:49    8.41 95.00 1550 401.3 False x
3/25/2015 12:44    10.12 330.00 2210 1,973.8 False x
4/2/2015 14:46    8.73 13 181.00 1660 813.4 False x
4/10/2015 10:57    17.58 15 2,098.00 6370 36,096.3 False x
4/17/2015 14:44    8.34 17 241.00 1520 990.4 False x
4/23/2015 08:26    6.43 13 77.00 912 191.3 False x
4/23/2015 09:13    6.43 13 78.00 912 193.6 False x
4/24/2015 14:58    5.87 14 157.00 755 320.1 False x
5/2/2015 12:51    4.48 18 125.00 416 140.8 False x
5/7/2015 09:09    4.19 22 79.00 355 76.1 False x
5/7/2015 10:19    4.19 22 100.00 355 96.1 False x
5/10/2015 12:21    6.69 22 523.00 988 1,397.7 False x
5/16/2015 12:56    5.81 20 137.00 739 274.3 False x
5/31/2015 12:52    4.37 20 114.00 393 121.6 False x
6/1/2015 14:52    7.38 19 754.00 1200 2,445.5 False x
6/8/2015 14:29    18.77 22 1,464.00 7310 28,912.4 False x
6/15/2015 14:49    10.39 26 713.00 2320 4,466.4 False x
6/23/2015 14:51    20.17 26 100.00 8770 2,380.0 False x
7/6/2015 14:49    11.20 25 258.00 2680 1,866.9 False x
7/13/2015 14:51    10.83 27 307.00 2510 2,083.3 False x
7/31/2015 14:55    9.98 28 176.00 2150 1,024.0 False x
8/8/2015 12:56    7.53 27 211.00 1250 712.6 False x
8/14/2015 09:03    7.53 27 175.00 1250 592.1 False x
8/14/2015 10:04    7.53 28 170.00 1250 576.3 False x
8/17/2015 14:49    7.43 28 166.00 1220 547.7 False x
8/28/2015 12:04    7.96 23 128.00 1390 481.1 False x
9/4/2015 14:57    6.76 27 136.00 1010 371.0 False x
9/10/2015 12:45    3.18 17 16.00 171 7.4 False x
9/12/2015 12:50    6.03 20 139.00 799 300.3 False x
9/24/2015 09:43    3.45 21 52.00 215 30.7 False x
9/24/2015 11:14    3.45 23 97.00 215 56.8 False x
9/26/2015 12:49    3.38 21 111.00 204 61.2 False x
10/2/2015 14:44    3.97 18 26.00 311 22.5 False x
10/19/2015 12:58    2.53 13 116.00 82 25.9 False x
10/21/2015 09:21    2.88 17 62.00 127 21.4 False x
11/11/2015 14:37    3.04 12 71.00 150 28.9 False x
11/22/2015 14:50    5.20 69.00 583 109.2 False x
11/25/2015 09:55    4.13  23.00 343 22.0 False x
11/29/2015 15:07    10.36 211.00 2310 1,317.4 False x
12/5/2015 13:48    5.85 23.00 750 47.0 False x
12/13/2015 16:30    7.03 12 103.00 1090 305.8 False x
12/20/2015 16:35    9.44 42.00 1930 220.3 False x
12/28/2015 15:57    26.60 419.00 22100 25,048.3 False x
1/7/2016 10:31    14.19  118.00 4200 1,340.3 False x
1/7/2016 11:09    14.20  120.00 4210 1,367.6 False x
1/17/2016 15:30    15.25 127.00 4820 1,657.2 False x
1/31/2016 12:09    14.55 124.00 4410 1,479.2 False x
2/7/2016 16:46    14.27 104.00 4250 1,198.8 False x
2/28/2016 13:50    11.44 96.00 2780 727.1 False x
3/2/2016 13:20    9.93  75.00 2130 434.0 False x
3/20/2016 12:18    9.35 10 66.00 1900 341.8 False x
3/28/2016 07:26    7.65 10 52.00 1290 182.7 False x
4/8/2016 16:33    9.80 10 67.00 2080 380.6 False x
4/15/2016 13:26    11.30 16 153.00 2720 1,128.6 False x
4/17/2016 17:54    9.80 18 134.00 2080 756.9 False x
4/23/2016 17:16    7.19 18 120.00 1140 369.7 False x
5/3/2016 09:03    10.20 16 240.00 2240 1,457.5 False x
5/12/2016 16:11    10.18 20 508.00 2230 3,059.3 False x
5/15/2016 12:42    9.05 17 116.00 1780 559.6 False x
5/26/2016 13:21    6.10 23 62.00 818 137.4 False x
6/8/2016 11:34    8.40 22 173.00 1540 720.0 False x
6/15/2016 13:24    6.08 30 203.00 813 447.3 False x
6/22/2016 20:06    6.33 29 100.00 883 238.8 False x
6/29/2016 10:30    5.82 27 100.00 742 201.4 False x
6/29/2016 11:20    5.83 27 95.00 745 193.0 False x
7/7/2016 18:57    8.20 25 336.00 1470 1,337.2 False x
7/12/2016 18:07    4.63 29 40.00 449 49.2 False x
7/20/2016 17:15    12.90 25 959.00 3500 9,064.3 False x
7/26/2016 14:14    11.36 26 778.00 2750 5,781.8 False x
8/2/2016 17:23    6.10 27 141.00 818 312.0 False x
8/24/2016 19:47    4.17 26 32.00 351 30.5 False x
9/4/2016 15:24    4.53 27 44.00 427 50.8 False x
9/11/2016 13:17    6.45 23 250.00 918 621.0 False x
9/19/2016 17:55    4.98 23 39.00 530 57.2 False x
10/4/2016 13:15    3.80 21 41.00 278 31.3 False x
10/10/2016 13:37    3.65 19 22.00 251 15.5 False x
10/18/2016 14:07    3.14 22 19.00 165 8.6 False x
10/20/2016 16:19    14.30 16 669.00 4260 7,700.9 False x
10/27/2016 17:27    5.89 15 70.00 761 145.9 False x
11/16/2016 10:56    4.52 13 14.00 425 16.6 False x
11/16/2016 11:45    4.53 13 15.00 427 17.6 False x
12/8/2016 10:15    8.15 73.00 1450 289.3 False x

Data Set Parameters and Explanation

Help with downloading, csv files, printing, and more





Illinois State Water Survey

2204 Griffith Dr
Champaign, IL 61820-7463
217-244-5459
info@isws.illinois.edu

Terms of use. Email the Web Administrator with questions or comments.

© 2017 University of Illinois Board of Trustees. All rights reserved.
For permissions information, contact the Illinois State Water Survey.
Site Map